<?xml version="1.0" encoding="UTF-8" standalone="no" ?>
<gpx xmlns="http://www.topografix.com/GPX/1/1" xmlns:xsi="http://www.w3.org/2001/XMLSchema-instance" xsi:schemaLocation="http://www.topografix.com/GPX/1/1 http://www.topografix.com/GPX/1/1/gpx.xsd" version="1.1" creator="VisuGPX - https://www.visugpx.com">
  <metadata>
    <name>6-&amp;quot;Via Garona&amp;quot; Cazères à Boussens.</name>
    <desc><![CDATA[Parcours réalisé.]]></desc>
  </metadata>
  <trk>
    <name><![CDATA[27 juil. 2022 à 07:15:56]]></name>
    <cmt><![CDATA[27 juil. 2022 à 07:15:56]]></cmt>
    <trkseg>
      <trkpt lat="43.21229" lon="1.08246">
        <ele>254</ele>
        <time>2022-07-27T05:16:54Z</time>
      </trkpt>
      <trkpt lat="43.2123" lon="1.08234">
        <ele>247</ele>
        <time>2022-07-27T05:17:27Z</time>
      </trkpt>
      <trkpt lat="43.21221" lon="1.08214">
        <ele>248</ele>
        <time>2022-07-27T05:17:47Z</time>
      </trkpt>
      <trkpt lat="43.21218" lon="1.08201">
        <ele>247</ele>
        <time>2022-07-27T05:17:53Z</time>
      </trkpt>
      <trkpt lat="43.21214" lon="1.08197">
        <ele>247</ele>
        <time>2022-07-27T05:17:56Z</time>
      </trkpt>
      <trkpt lat="43.21213" lon="1.08192">
        <ele>247</ele>
        <time>2022-07-27T05:18:00Z</time>
      </trkpt>
      <trkpt lat="43.21205" lon="1.08187">
        <ele>247</ele>
        <time>2022-07-27T05:18:16Z</time>
      </trkpt>
      <trkpt lat="43.21199" lon="1.08187">
        <ele>247</ele>
        <time>2022-07-27T05:18:38Z</time>
      </trkpt>
      <trkpt lat="43.21161" lon="1.08202">
        <ele>247</ele>
        <time>2022-07-27T05:19:09Z</time>
      </trkpt>
      <trkpt lat="43.21134" lon="1.08213">
        <ele>247</ele>
        <time>2022-07-27T05:19:26Z</time>
      </trkpt>
      <trkpt lat="43.2113" lon="1.08217">
        <ele>247</ele>
        <time>2022-07-27T05:19:29Z</time>
      </trkpt>
      <trkpt lat="43.21128" lon="1.08229">
        <ele>248</ele>
        <time>2022-07-27T05:20:02Z</time>
      </trkpt>
      <trkpt lat="43.21126" lon="1.08235">
        <ele>247</ele>
        <time>2022-07-27T05:20:05Z</time>
      </trkpt>
      <trkpt lat="43.21124" lon="1.0824">
        <ele>247</ele>
        <time>2022-07-27T05:20:08Z</time>
      </trkpt>
      <trkpt lat="43.2112" lon="1.08247">
        <ele>247</ele>
        <time>2022-07-27T05:20:15Z</time>
      </trkpt>
      <trkpt lat="43.21117" lon="1.08253">
        <ele>247</ele>
        <time>2022-07-27T05:20:21Z</time>
      </trkpt>
      <trkpt lat="43.21115" lon="1.08259">
        <ele>247</ele>
        <time>2022-07-27T05:20:25Z</time>
      </trkpt>
      <trkpt lat="43.21115" lon="1.08265">
        <ele>247</ele>
        <time>2022-07-27T05:20:28Z</time>
      </trkpt>
      <trkpt lat="43.21112" lon="1.08269">
        <ele>247</ele>
        <time>2022-07-27T05:20:32Z</time>
      </trkpt>
      <trkpt lat="43.21107" lon="1.08272">
        <ele>247</ele>
        <time>2022-07-27T05:20:36Z</time>
      </trkpt>
      <trkpt lat="43.21103" lon="1.08284">
        <ele>247</ele>
        <time>2022-07-27T05:20:44Z</time>
      </trkpt>
      <trkpt lat="43.21098" lon="1.08285">
        <ele>247</ele>
        <time>2022-07-27T05:20:48Z</time>
      </trkpt>
      <trkpt lat="43.21083" lon="1.08284">
        <ele>247</ele>
        <time>2022-07-27T05:20:55Z</time>
      </trkpt>
      <trkpt lat="43.21078" lon="1.08281">
        <ele>247</ele>
        <time>2022-07-27T05:20:58Z</time>
      </trkpt>
      <trkpt lat="43.21073" lon="1.08281">
        <ele>247</ele>
        <time>2022-07-27T05:21:02Z</time>
      </trkpt>
      <trkpt lat="43.21068" lon="1.08288">
        <ele>247</ele>
        <time>2022-07-27T05:21:07Z</time>
      </trkpt>
      <trkpt lat="43.21044" lon="1.08308">
        <ele>247</ele>
        <time>2022-07-27T05:21:26Z</time>
      </trkpt>
      <trkpt lat="43.21018" lon="1.08326">
        <ele>247</ele>
        <time>2022-07-27T05:21:49Z</time>
      </trkpt>
      <trkpt lat="43.21014" lon="1.08334">
        <ele>247</ele>
        <time>2022-07-27T05:21:54Z</time>
      </trkpt>
      <trkpt lat="43.21003" lon="1.08343">
        <ele>246</ele>
        <time>2022-07-27T05:22:04Z</time>
      </trkpt>
      <trkpt lat="43.20997" lon="1.08341">
        <ele>246</ele>
        <time>2022-07-27T05:22:08Z</time>
      </trkpt>
      <trkpt lat="43.20992" lon="1.08345">
        <ele>246</ele>
        <time>2022-07-27T05:22:12Z</time>
      </trkpt>
      <trkpt lat="43.20987" lon="1.0835">
        <ele>246</ele>
        <time>2022-07-27T05:22:16Z</time>
      </trkpt>
      <trkpt lat="43.20986" lon="1.08355">
        <ele>246</ele>
        <time>2022-07-27T05:22:19Z</time>
      </trkpt>
      <trkpt lat="43.20982" lon="1.08361">
        <ele>246</ele>
        <time>2022-07-27T05:22:23Z</time>
      </trkpt>
      <trkpt lat="43.20935" lon="1.08366">
        <ele>246</ele>
        <time>2022-07-27T05:22:57Z</time>
      </trkpt>
      <trkpt lat="43.20921" lon="1.08372">
        <ele>246</ele>
        <time>2022-07-27T05:23:09Z</time>
      </trkpt>
      <trkpt lat="43.20905" lon="1.08377">
        <ele>245</ele>
        <time>2022-07-27T05:23:22Z</time>
      </trkpt>
      <trkpt lat="43.20899" lon="1.0838">
        <ele>245</ele>
        <time>2022-07-27T05:23:26Z</time>
      </trkpt>
      <trkpt lat="43.20885" lon="1.08384">
        <ele>245</ele>
        <time>2022-07-27T05:23:36Z</time>
      </trkpt>
      <trkpt lat="43.20881" lon="1.08387">
        <ele>245</ele>
        <time>2022-07-27T05:23:40Z</time>
      </trkpt>
      <trkpt lat="43.20872" lon="1.08389">
        <ele>245</ele>
        <time>2022-07-27T05:23:48Z</time>
      </trkpt>
      <trkpt lat="43.2086" lon="1.08398">
        <ele>245</ele>
        <time>2022-07-27T05:23:58Z</time>
      </trkpt>
      <trkpt lat="43.20857" lon="1.08402">
        <ele>245</ele>
        <time>2022-07-27T05:24:01Z</time>
      </trkpt>
      <trkpt lat="43.20852" lon="1.08398">
        <ele>244</ele>
        <time>2022-07-27T05:24:17Z</time>
      </trkpt>
      <trkpt lat="43.20844" lon="1.08402">
        <ele>244</ele>
        <time>2022-07-27T05:24:57Z</time>
      </trkpt>
      <trkpt lat="43.20841" lon="1.08409">
        <ele>244</ele>
        <time>2022-07-27T05:25:02Z</time>
      </trkpt>
      <trkpt lat="43.20813" lon="1.08431">
        <ele>243</ele>
        <time>2022-07-27T05:25:29Z</time>
      </trkpt>
      <trkpt lat="43.20807" lon="1.08442">
        <ele>243</ele>
        <time>2022-07-27T05:25:36Z</time>
      </trkpt>
      <trkpt lat="43.20801" lon="1.08446">
        <ele>243</ele>
        <time>2022-07-27T05:25:42Z</time>
      </trkpt>
      <trkpt lat="43.20769" lon="1.08458">
        <ele>243</ele>
        <time>2022-07-27T05:26:07Z</time>
      </trkpt>
      <trkpt lat="43.2074" lon="1.08482">
        <ele>243</ele>
        <time>2022-07-27T05:26:34Z</time>
      </trkpt>
      <trkpt lat="43.20731" lon="1.08495">
        <ele>243</ele>
        <time>2022-07-27T05:27:10Z</time>
      </trkpt>
      <trkpt lat="43.20727" lon="1.08499">
        <ele>244</ele>
        <time>2022-07-27T05:27:14Z</time>
      </trkpt>
      <trkpt lat="43.20722" lon="1.08502">
        <ele>243</ele>
        <time>2022-07-27T05:27:19Z</time>
      </trkpt>
      <trkpt lat="43.20715" lon="1.08503">
        <ele>243</ele>
        <time>2022-07-27T05:27:22Z</time>
      </trkpt>
      <trkpt lat="43.20703" lon="1.08508">
        <ele>243</ele>
        <time>2022-07-27T05:27:31Z</time>
      </trkpt>
      <trkpt lat="43.20694" lon="1.08519">
        <ele>243</ele>
        <time>2022-07-27T05:27:43Z</time>
      </trkpt>
      <trkpt lat="43.20658" lon="1.08522">
        <ele>242</ele>
        <time>2022-07-27T05:28:13Z</time>
      </trkpt>
      <trkpt lat="43.20653" lon="1.08525">
        <ele>242</ele>
        <time>2022-07-27T05:28:18Z</time>
      </trkpt>
      <trkpt lat="43.20641" lon="1.08525">
        <ele>242</ele>
        <time>2022-07-27T05:28:28Z</time>
      </trkpt>
      <trkpt lat="43.20632" lon="1.08522">
        <ele>242</ele>
        <time>2022-07-27T05:28:36Z</time>
      </trkpt>
      <trkpt lat="43.2062" lon="1.08517">
        <ele>243</ele>
        <time>2022-07-27T05:29:06Z</time>
      </trkpt>
      <trkpt lat="43.20611" lon="1.08519">
        <ele>242</ele>
        <time>2022-07-27T05:29:13Z</time>
      </trkpt>
      <trkpt lat="43.2058" lon="1.08514">
        <ele>242</ele>
        <time>2022-07-27T05:29:38Z</time>
      </trkpt>
      <trkpt lat="43.2053" lon="1.08525">
        <ele>242</ele>
        <time>2022-07-27T05:30:17Z</time>
      </trkpt>
      <trkpt lat="43.20514" lon="1.08524">
        <ele>242</ele>
        <time>2022-07-27T05:30:29Z</time>
      </trkpt>
      <trkpt lat="43.20497" lon="1.08529">
        <ele>242</ele>
        <time>2022-07-27T05:30:43Z</time>
      </trkpt>
      <trkpt lat="43.20489" lon="1.08533">
        <ele>242</ele>
        <time>2022-07-27T05:30:49Z</time>
      </trkpt>
      <trkpt lat="43.20471" lon="1.08536">
        <ele>242</ele>
        <time>2022-07-27T05:31:05Z</time>
      </trkpt>
      <trkpt lat="43.2045" lon="1.08548">
        <ele>241</ele>
        <time>2022-07-27T05:31:24Z</time>
      </trkpt>
      <trkpt lat="43.20442" lon="1.0855">
        <ele>239</ele>
        <time>2022-07-27T05:31:33Z</time>
      </trkpt>
      <trkpt lat="43.20436" lon="1.08555">
        <ele>238</ele>
        <time>2022-07-27T05:31:40Z</time>
      </trkpt>
      <trkpt lat="43.2043" lon="1.08567">
        <ele>237</ele>
        <time>2022-07-27T05:31:48Z</time>
      </trkpt>
      <trkpt lat="43.20426" lon="1.08572">
        <ele>237</ele>
        <time>2022-07-27T05:31:52Z</time>
      </trkpt>
      <trkpt lat="43.20426" lon="1.08579">
        <ele>236</ele>
        <time>2022-07-27T05:31:57Z</time>
      </trkpt>
      <trkpt lat="43.20414" lon="1.08582">
        <ele>236</ele>
        <time>2022-07-27T05:32:39Z</time>
      </trkpt>
      <trkpt lat="43.2041" lon="1.08585">
        <ele>235</ele>
        <time>2022-07-27T05:32:49Z</time>
      </trkpt>
      <trkpt lat="43.20405" lon="1.08587">
        <ele>235</ele>
        <time>2022-07-27T05:32:53Z</time>
      </trkpt>
      <trkpt lat="43.20396" lon="1.08589">
        <ele>234</ele>
        <time>2022-07-27T05:33:02Z</time>
      </trkpt>
      <trkpt lat="43.20391" lon="1.08591">
        <ele>234</ele>
        <time>2022-07-27T05:33:06Z</time>
      </trkpt>
      <trkpt lat="43.2037" lon="1.08595">
        <ele>233</ele>
        <time>2022-07-27T05:33:24Z</time>
      </trkpt>
      <trkpt lat="43.20352" lon="1.08591">
        <ele>233</ele>
        <time>2022-07-27T05:33:39Z</time>
      </trkpt>
      <trkpt lat="43.20342" lon="1.08585">
        <ele>233</ele>
        <time>2022-07-27T05:33:49Z</time>
      </trkpt>
      <trkpt lat="43.20337" lon="1.08584">
        <ele>233</ele>
        <time>2022-07-27T05:33:53Z</time>
      </trkpt>
      <trkpt lat="43.20332" lon="1.08577">
        <ele>233</ele>
        <time>2022-07-27T05:34:19Z</time>
      </trkpt>
      <trkpt lat="43.20323" lon="1.08566">
        <ele>233</ele>
        <time>2022-07-27T05:34:34Z</time>
      </trkpt>
      <trkpt lat="43.20306" lon="1.08556">
        <ele>233</ele>
        <time>2022-07-27T05:34:56Z</time>
      </trkpt>
      <trkpt lat="43.20276" lon="1.08543">
        <ele>233</ele>
        <time>2022-07-27T05:35:22Z</time>
      </trkpt>
      <trkpt lat="43.2027" lon="1.08544">
        <ele>233</ele>
        <time>2022-07-27T05:35:26Z</time>
      </trkpt>
      <trkpt lat="43.20265" lon="1.08539">
        <ele>233</ele>
        <time>2022-07-27T05:35:30Z</time>
      </trkpt>
      <trkpt lat="43.20261" lon="1.08533">
        <ele>233</ele>
        <time>2022-07-27T05:35:34Z</time>
      </trkpt>
      <trkpt lat="43.20256" lon="1.08531">
        <ele>233</ele>
        <time>2022-07-27T05:35:39Z</time>
      </trkpt>
      <trkpt lat="43.20251" lon="1.0853">
        <ele>233</ele>
        <time>2022-07-27T05:35:44Z</time>
      </trkpt>
      <trkpt lat="43.20248" lon="1.08541">
        <ele>234</ele>
        <time>2022-07-27T05:36:02Z</time>
      </trkpt>
      <trkpt lat="43.20244" lon="1.08545">
        <ele>234</ele>
        <time>2022-07-27T05:36:10Z</time>
      </trkpt>
      <trkpt lat="43.20223" lon="1.08522">
        <ele>234</ele>
        <time>2022-07-27T05:36:36Z</time>
      </trkpt>
      <trkpt lat="43.20219" lon="1.08516">
        <ele>234</ele>
        <time>2022-07-27T05:36:41Z</time>
      </trkpt>
      <trkpt lat="43.20214" lon="1.08513">
        <ele>234</ele>
        <time>2022-07-27T05:36:46Z</time>
      </trkpt>
      <trkpt lat="43.20194" lon="1.08482">
        <ele>234</ele>
        <time>2022-07-27T05:37:09Z</time>
      </trkpt>
      <trkpt lat="43.20184" lon="1.08471">
        <ele>234</ele>
        <time>2022-07-27T05:37:19Z</time>
      </trkpt>
      <trkpt lat="43.20181" lon="1.08464">
        <ele>234</ele>
        <time>2022-07-27T05:37:24Z</time>
      </trkpt>
      <trkpt lat="43.20179" lon="1.08454">
        <ele>235</ele>
        <time>2022-07-27T05:37:30Z</time>
      </trkpt>
      <trkpt lat="43.20149" lon="1.08409">
        <ele>235</ele>
        <time>2022-07-27T05:38:06Z</time>
      </trkpt>
      <trkpt lat="43.20131" lon="1.08384">
        <ele>235</ele>
        <time>2022-07-27T05:38:26Z</time>
      </trkpt>
      <trkpt lat="43.20122" lon="1.08375">
        <ele>235</ele>
        <time>2022-07-27T05:38:35Z</time>
      </trkpt>
      <trkpt lat="43.20119" lon="1.08369">
        <ele>235</ele>
        <time>2022-07-27T05:38:39Z</time>
      </trkpt>
      <trkpt lat="43.20119" lon="1.08363">
        <ele>235</ele>
        <time>2022-07-27T05:38:42Z</time>
      </trkpt>
      <trkpt lat="43.20111" lon="1.08341">
        <ele>235</ele>
        <time>2022-07-27T05:38:55Z</time>
      </trkpt>
      <trkpt lat="43.20106" lon="1.0833">
        <ele>235</ele>
        <time>2022-07-27T05:39:03Z</time>
      </trkpt>
      <trkpt lat="43.20104" lon="1.08314">
        <ele>235</ele>
        <time>2022-07-27T05:39:13Z</time>
      </trkpt>
      <trkpt lat="43.20111" lon="1.08296">
        <ele>235</ele>
        <time>2022-07-27T05:39:58Z</time>
      </trkpt>
      <trkpt lat="43.2011" lon="1.08287">
        <ele>235</ele>
        <time>2022-07-27T05:40:02Z</time>
      </trkpt>
      <trkpt lat="43.20115" lon="1.08268">
        <ele>235</ele>
        <time>2022-07-27T05:40:17Z</time>
      </trkpt>
      <trkpt lat="43.20121" lon="1.08251">
        <ele>235</ele>
        <time>2022-07-27T05:40:28Z</time>
      </trkpt>
      <trkpt lat="43.20123" lon="1.08232">
        <ele>235</ele>
        <time>2022-07-27T05:40:40Z</time>
      </trkpt>
      <trkpt lat="43.20122" lon="1.08216">
        <ele>235</ele>
        <time>2022-07-27T05:40:50Z</time>
      </trkpt>
      <trkpt lat="43.20117" lon="1.08204">
        <ele>235</ele>
        <time>2022-07-27T05:41:01Z</time>
      </trkpt>
      <trkpt lat="43.20109" lon="1.082">
        <ele>235</ele>
        <time>2022-07-27T05:41:11Z</time>
      </trkpt>
      <trkpt lat="43.20102" lon="1.08191">
        <ele>235</ele>
        <time>2022-07-27T05:41:19Z</time>
      </trkpt>
      <trkpt lat="43.20103" lon="1.08183">
        <ele>235</ele>
        <time>2022-07-27T05:41:25Z</time>
      </trkpt>
      <trkpt lat="43.2011" lon="1.0814">
        <ele>236</ele>
        <time>2022-07-27T05:41:53Z</time>
      </trkpt>
      <trkpt lat="43.20126" lon="1.08118">
        <ele>236</ele>
        <time>2022-07-27T05:42:12Z</time>
      </trkpt>
      <trkpt lat="43.20129" lon="1.08108">
        <ele>236</ele>
        <time>2022-07-27T05:42:20Z</time>
      </trkpt>
      <trkpt lat="43.20131" lon="1.08098">
        <ele>236</ele>
        <time>2022-07-27T05:42:32Z</time>
      </trkpt>
      <trkpt lat="43.20131" lon="1.08088">
        <ele>236</ele>
        <time>2022-07-27T05:42:39Z</time>
      </trkpt>
      <trkpt lat="43.20134" lon="1.08078">
        <ele>237</ele>
        <time>2022-07-27T05:42:49Z</time>
      </trkpt>
      <trkpt lat="43.20131" lon="1.08046">
        <ele>237</ele>
        <time>2022-07-27T05:43:09Z</time>
      </trkpt>
      <trkpt lat="43.20133" lon="1.08036">
        <ele>237</ele>
        <time>2022-07-27T05:43:14Z</time>
      </trkpt>
      <trkpt lat="43.20139" lon="1.08019">
        <ele>237</ele>
        <time>2022-07-27T05:43:23Z</time>
      </trkpt>
      <trkpt lat="43.20138" lon="1.08005">
        <ele>237</ele>
        <time>2022-07-27T05:43:34Z</time>
      </trkpt>
      <trkpt lat="43.2014" lon="1.07983">
        <ele>237</ele>
        <time>2022-07-27T05:43:51Z</time>
      </trkpt>
      <trkpt lat="43.20139" lon="1.07975">
        <ele>238</ele>
        <time>2022-07-27T05:44:05Z</time>
      </trkpt>
      <trkpt lat="43.20134" lon="1.07964">
        <ele>237</ele>
        <time>2022-07-27T05:44:41Z</time>
      </trkpt>
      <trkpt lat="43.20134" lon="1.07955">
        <ele>237</ele>
        <time>2022-07-27T05:44:46Z</time>
      </trkpt>
      <trkpt lat="43.20138" lon="1.07937">
        <ele>237</ele>
        <time>2022-07-27T05:44:57Z</time>
      </trkpt>
      <trkpt lat="43.20139" lon="1.07929">
        <ele>237</ele>
        <time>2022-07-27T05:45:02Z</time>
      </trkpt>
      <trkpt lat="43.20157" lon="1.07941">
        <ele>240</ele>
        <time>2022-07-27T05:45:27Z</time>
      </trkpt>
      <trkpt lat="43.20163" lon="1.07952">
        <ele>242</ele>
        <time>2022-07-27T05:45:39Z</time>
      </trkpt>
      <trkpt lat="43.20169" lon="1.07961">
        <ele>244</ele>
        <time>2022-07-27T05:45:52Z</time>
      </trkpt>
      <trkpt lat="43.20172" lon="1.07971">
        <ele>245</ele>
        <time>2022-07-27T05:46:03Z</time>
      </trkpt>
      <trkpt lat="43.20173" lon="1.07967">
        <ele>248</ele>
        <time>2022-07-27T05:46:34Z</time>
      </trkpt>
      <trkpt lat="43.20172" lon="1.07958">
        <ele>248</ele>
        <time>2022-07-27T05:46:41Z</time>
      </trkpt>
      <trkpt lat="43.2017" lon="1.07949">
        <ele>248</ele>
        <time>2022-07-27T05:47:31Z</time>
      </trkpt>
      <trkpt lat="43.20167" lon="1.07933">
        <ele>247</ele>
        <time>2022-07-27T05:47:44Z</time>
      </trkpt>
      <trkpt lat="43.20166" lon="1.07878">
        <ele>247</ele>
        <time>2022-07-27T05:48:17Z</time>
      </trkpt>
      <trkpt lat="43.20167" lon="1.0787">
        <ele>247</ele>
        <time>2022-07-27T05:48:22Z</time>
      </trkpt>
      <trkpt lat="43.20166" lon="1.07821">
        <ele>246</ele>
        <time>2022-07-27T05:48:54Z</time>
      </trkpt>
      <trkpt lat="43.20165" lon="1.07813">
        <ele>246</ele>
        <time>2022-07-27T05:48:58Z</time>
      </trkpt>
      <trkpt lat="43.20165" lon="1.07799">
        <ele>246</ele>
        <time>2022-07-27T05:49:07Z</time>
      </trkpt>
      <trkpt lat="43.20163" lon="1.07784">
        <ele>246</ele>
        <time>2022-07-27T05:49:15Z</time>
      </trkpt>
      <trkpt lat="43.20167" lon="1.07774">
        <ele>246</ele>
        <time>2022-07-27T05:49:21Z</time>
      </trkpt>
      <trkpt lat="43.20171" lon="1.07769">
        <ele>246</ele>
        <time>2022-07-27T05:49:25Z</time>
      </trkpt>
      <trkpt lat="43.20203" lon="1.07759">
        <ele>246</ele>
        <time>2022-07-27T05:49:51Z</time>
      </trkpt>
      <trkpt lat="43.20208" lon="1.07755">
        <ele>246</ele>
        <time>2022-07-27T05:49:55Z</time>
      </trkpt>
      <trkpt lat="43.20213" lon="1.07754">
        <ele>246</ele>
        <time>2022-07-27T05:49:58Z</time>
      </trkpt>
      <trkpt lat="43.20218" lon="1.07756">
        <ele>246</ele>
        <time>2022-07-27T05:50:02Z</time>
      </trkpt>
      <trkpt lat="43.20231" lon="1.07752">
        <ele>246</ele>
        <time>2022-07-27T05:50:13Z</time>
      </trkpt>
      <trkpt lat="43.20236" lon="1.07749">
        <ele>246</ele>
        <time>2022-07-27T05:50:18Z</time>
      </trkpt>
      <trkpt lat="43.20242" lon="1.07749">
        <ele>246</ele>
        <time>2022-07-27T05:50:22Z</time>
      </trkpt>
      <trkpt lat="43.20262" lon="1.07744">
        <ele>246</ele>
        <time>2022-07-27T05:50:38Z</time>
      </trkpt>
      <trkpt lat="43.20265" lon="1.07738">
        <ele>245</ele>
        <time>2022-07-27T05:50:43Z</time>
      </trkpt>
      <trkpt lat="43.20258" lon="1.07722">
        <ele>246</ele>
        <time>2022-07-27T05:50:59Z</time>
      </trkpt>
      <trkpt lat="43.20257" lon="1.07716">
        <ele>246</ele>
        <time>2022-07-27T05:51:03Z</time>
      </trkpt>
      <trkpt lat="43.20253" lon="1.07703">
        <ele>245</ele>
        <time>2022-07-27T05:51:12Z</time>
      </trkpt>
      <trkpt lat="43.20252" lon="1.07696">
        <ele>245</ele>
        <time>2022-07-27T05:51:16Z</time>
      </trkpt>
      <trkpt lat="43.20232" lon="1.07643">
        <ele>246</ele>
        <time>2022-07-27T05:51:51Z</time>
      </trkpt>
      <trkpt lat="43.20217" lon="1.07608">
        <ele>246</ele>
        <time>2022-07-27T05:52:14Z</time>
      </trkpt>
      <trkpt lat="43.20206" lon="1.07559">
        <ele>246</ele>
        <time>2022-07-27T05:52:45Z</time>
      </trkpt>
      <trkpt lat="43.20201" lon="1.0754">
        <ele>246</ele>
        <time>2022-07-27T05:52:57Z</time>
      </trkpt>
      <trkpt lat="43.20201" lon="1.07483">
        <ele>246</ele>
        <time>2022-07-27T05:53:28Z</time>
      </trkpt>
      <trkpt lat="43.20202" lon="1.0747">
        <ele>246</ele>
        <time>2022-07-27T05:53:34Z</time>
      </trkpt>
      <trkpt lat="43.20204" lon="1.07462">
        <ele>246</ele>
        <time>2022-07-27T05:54:06Z</time>
      </trkpt>
      <trkpt lat="43.20205" lon="1.07448">
        <ele>245</ele>
        <time>2022-07-27T05:54:16Z</time>
      </trkpt>
      <trkpt lat="43.20205" lon="1.07436">
        <ele>245</ele>
        <time>2022-07-27T05:54:22Z</time>
      </trkpt>
      <trkpt lat="43.20208" lon="1.07424">
        <ele>245</ele>
        <time>2022-07-27T05:54:30Z</time>
      </trkpt>
      <trkpt lat="43.20219" lon="1.07403">
        <ele>245</ele>
        <time>2022-07-27T05:54:43Z</time>
      </trkpt>
      <trkpt lat="43.20235" lon="1.07388">
        <ele>245</ele>
        <time>2022-07-27T05:54:58Z</time>
      </trkpt>
      <trkpt lat="43.20239" lon="1.07386">
        <ele>245</ele>
        <time>2022-07-27T05:55:01Z</time>
      </trkpt>
      <trkpt lat="43.20243" lon="1.07387">
        <ele>245</ele>
        <time>2022-07-27T05:55:04Z</time>
      </trkpt>
      <trkpt lat="43.20252" lon="1.07384">
        <ele>245</ele>
        <time>2022-07-27T05:55:11Z</time>
      </trkpt>
      <trkpt lat="43.20257" lon="1.07381">
        <ele>245</ele>
        <time>2022-07-27T05:55:15Z</time>
      </trkpt>
      <trkpt lat="43.20266" lon="1.07379">
        <ele>245</ele>
        <time>2022-07-27T05:55:22Z</time>
      </trkpt>
      <trkpt lat="43.20271" lon="1.0738">
        <ele>245</ele>
        <time>2022-07-27T05:55:27Z</time>
      </trkpt>
      <trkpt lat="43.20306" lon="1.07368">
        <ele>245</ele>
        <time>2022-07-27T05:55:56Z</time>
      </trkpt>
      <trkpt lat="43.20311" lon="1.07368">
        <ele>245</ele>
        <time>2022-07-27T05:56:00Z</time>
      </trkpt>
      <trkpt lat="43.20322" lon="1.07365">
        <ele>245</ele>
        <time>2022-07-27T05:56:08Z</time>
      </trkpt>
      <trkpt lat="43.20326" lon="1.07362">
        <ele>245</ele>
        <time>2022-07-27T05:56:12Z</time>
      </trkpt>
      <trkpt lat="43.20331" lon="1.07355">
        <ele>246</ele>
        <time>2022-07-27T05:56:19Z</time>
      </trkpt>
      <trkpt lat="43.20321" lon="1.07311">
        <ele>246</ele>
        <time>2022-07-27T05:56:49Z</time>
      </trkpt>
      <trkpt lat="43.20321" lon="1.07304">
        <ele>246</ele>
        <time>2022-07-27T05:56:53Z</time>
      </trkpt>
      <trkpt lat="43.20319" lon="1.07297">
        <ele>246</ele>
        <time>2022-07-27T05:56:58Z</time>
      </trkpt>
      <trkpt lat="43.20319" lon="1.07289">
        <ele>246</ele>
        <time>2022-07-27T05:57:02Z</time>
      </trkpt>
      <trkpt lat="43.20311" lon="1.07236">
        <ele>246</ele>
        <time>2022-07-27T05:57:34Z</time>
      </trkpt>
      <trkpt lat="43.20303" lon="1.07192">
        <ele>247</ele>
        <time>2022-07-27T05:58:00Z</time>
      </trkpt>
      <trkpt lat="43.20302" lon="1.07182">
        <ele>247</ele>
        <time>2022-07-27T05:58:07Z</time>
      </trkpt>
      <trkpt lat="43.20298" lon="1.07162">
        <ele>247</ele>
        <time>2022-07-27T05:58:19Z</time>
      </trkpt>
      <trkpt lat="43.20296" lon="1.07148">
        <ele>247</ele>
        <time>2022-07-27T05:58:28Z</time>
      </trkpt>
      <trkpt lat="43.20291" lon="1.07131">
        <ele>248</ele>
        <time>2022-07-27T05:58:40Z</time>
      </trkpt>
      <trkpt lat="43.2029" lon="1.07106">
        <ele>248</ele>
        <time>2022-07-27T05:58:53Z</time>
      </trkpt>
      <trkpt lat="43.2029" lon="1.07098">
        <ele>248</ele>
        <time>2022-07-27T05:58:57Z</time>
      </trkpt>
      <trkpt lat="43.2028" lon="1.07061">
        <ele>248</ele>
        <time>2022-07-27T05:59:21Z</time>
      </trkpt>
      <trkpt lat="43.20276" lon="1.07049">
        <ele>248</ele>
        <time>2022-07-27T05:59:29Z</time>
      </trkpt>
      <trkpt lat="43.20275" lon="1.07043">
        <ele>248</ele>
        <time>2022-07-27T05:59:34Z</time>
      </trkpt>
      <trkpt lat="43.20276" lon="1.07034">
        <ele>248</ele>
        <time>2022-07-27T05:59:40Z</time>
      </trkpt>
      <trkpt lat="43.20277" lon="1.07027">
        <ele>248</ele>
        <time>2022-07-27T05:59:46Z</time>
      </trkpt>
      <trkpt lat="43.2027" lon="1.0701">
        <ele>248</ele>
        <time>2022-07-27T06:00:01Z</time>
      </trkpt>
      <trkpt lat="43.20269" lon="1.07001">
        <ele>248</ele>
        <time>2022-07-27T06:00:07Z</time>
      </trkpt>
      <trkpt lat="43.2026" lon="1.06974">
        <ele>248</ele>
        <time>2022-07-27T06:00:24Z</time>
      </trkpt>
      <trkpt lat="43.20259" lon="1.06966">
        <ele>248</ele>
        <time>2022-07-27T06:00:29Z</time>
      </trkpt>
      <trkpt lat="43.20256" lon="1.0696">
        <ele>248</ele>
        <time>2022-07-27T06:00:34Z</time>
      </trkpt>
      <trkpt lat="43.20257" lon="1.06951">
        <ele>248</ele>
        <time>2022-07-27T06:00:40Z</time>
      </trkpt>
      <trkpt lat="43.20254" lon="1.06943">
        <ele>248</ele>
        <time>2022-07-27T06:00:46Z</time>
      </trkpt>
      <trkpt lat="43.20251" lon="1.06926">
        <ele>248</ele>
        <time>2022-07-27T06:00:58Z</time>
      </trkpt>
      <trkpt lat="43.20252" lon="1.06917">
        <ele>248</ele>
        <time>2022-07-27T06:01:13Z</time>
      </trkpt>
      <trkpt lat="43.20257" lon="1.06913">
        <ele>248</ele>
        <time>2022-07-27T06:01:43Z</time>
      </trkpt>
      <trkpt lat="43.2025" lon="1.06926">
        <ele>249</ele>
        <time>2022-07-27T06:02:55Z</time>
      </trkpt>
      <trkpt lat="43.20241" lon="1.06926">
        <ele>249</ele>
        <time>2022-07-27T06:03:15Z</time>
      </trkpt>
      <trkpt lat="43.20234" lon="1.06924">
        <ele>249</ele>
        <time>2022-07-27T06:03:20Z</time>
      </trkpt>
      <trkpt lat="43.20229" lon="1.0692">
        <ele>249</ele>
        <time>2022-07-27T06:03:24Z</time>
      </trkpt>
      <trkpt lat="43.20224" lon="1.06919">
        <ele>249</ele>
        <time>2022-07-27T06:03:28Z</time>
      </trkpt>
      <trkpt lat="43.20218" lon="1.06925">
        <ele>248</ele>
        <time>2022-07-27T06:03:48Z</time>
      </trkpt>
      <trkpt lat="43.20218" lon="1.06936">
        <ele>249</ele>
        <time>2022-07-27T06:04:00Z</time>
      </trkpt>
      <trkpt lat="43.2022" lon="1.06944">
        <ele>248</ele>
        <time>2022-07-27T06:04:07Z</time>
      </trkpt>
      <trkpt lat="43.20217" lon="1.06956">
        <ele>248</ele>
        <time>2022-07-27T06:04:21Z</time>
      </trkpt>
      <trkpt lat="43.20211" lon="1.06948">
        <ele>248</ele>
        <time>2022-07-27T06:04:33Z</time>
      </trkpt>
      <trkpt lat="43.2021" lon="1.06938">
        <ele>248</ele>
        <time>2022-07-27T06:04:39Z</time>
      </trkpt>
      <trkpt lat="43.20205" lon="1.06933">
        <ele>248</ele>
        <time>2022-07-27T06:04:42Z</time>
      </trkpt>
      <trkpt lat="43.202" lon="1.0693">
        <ele>248</ele>
        <time>2022-07-27T06:04:48Z</time>
      </trkpt>
      <trkpt lat="43.20192" lon="1.06928">
        <ele>248</ele>
        <time>2022-07-27T06:04:57Z</time>
      </trkpt>
      <trkpt lat="43.20178" lon="1.06936">
        <ele>247</ele>
        <time>2022-07-27T06:05:10Z</time>
      </trkpt>
      <trkpt lat="43.20175" lon="1.06932">
        <ele>247</ele>
        <time>2022-07-27T06:05:51Z</time>
      </trkpt>
      <trkpt lat="43.20174" lon="1.06921">
        <ele>247</ele>
        <time>2022-07-27T06:06:26Z</time>
      </trkpt>
      <trkpt lat="43.20174" lon="1.06904">
        <ele>247</ele>
        <time>2022-07-27T06:06:41Z</time>
      </trkpt>
      <trkpt lat="43.20172" lon="1.06895">
        <ele>247</ele>
        <time>2022-07-27T06:06:48Z</time>
      </trkpt>
      <trkpt lat="43.20172" lon="1.06888">
        <ele>247</ele>
        <time>2022-07-27T06:06:52Z</time>
      </trkpt>
      <trkpt lat="43.20173" lon="1.06881">
        <ele>246</ele>
        <time>2022-07-27T06:06:57Z</time>
      </trkpt>
      <trkpt lat="43.20172" lon="1.06866">
        <ele>246</ele>
        <time>2022-07-27T06:07:09Z</time>
      </trkpt>
      <trkpt lat="43.2017" lon="1.06859">
        <ele>246</ele>
        <time>2022-07-27T06:07:12Z</time>
      </trkpt>
      <trkpt lat="43.20168" lon="1.06835">
        <ele>246</ele>
        <time>2022-07-27T06:07:25Z</time>
      </trkpt>
      <trkpt lat="43.2017" lon="1.06822">
        <ele>246</ele>
        <time>2022-07-27T06:07:33Z</time>
      </trkpt>
      <trkpt lat="43.20171" lon="1.06815">
        <ele>246</ele>
        <time>2022-07-27T06:07:37Z</time>
      </trkpt>
      <trkpt lat="43.20172" lon="1.06809">
        <ele>246</ele>
        <time>2022-07-27T06:07:41Z</time>
      </trkpt>
      <trkpt lat="43.20179" lon="1.068">
        <ele>246</ele>
        <time>2022-07-27T06:07:50Z</time>
      </trkpt>
      <trkpt lat="43.20185" lon="1.068">
        <ele>246</ele>
        <time>2022-07-27T06:07:55Z</time>
      </trkpt>
      <trkpt lat="43.20208" lon="1.0679">
        <ele>246</ele>
        <time>2022-07-27T06:08:16Z</time>
      </trkpt>
      <trkpt lat="43.20214" lon="1.06791">
        <ele>246</ele>
        <time>2022-07-27T06:08:21Z</time>
      </trkpt>
      <trkpt lat="43.20221" lon="1.06795">
        <ele>245</ele>
        <time>2022-07-27T06:08:31Z</time>
      </trkpt>
      <trkpt lat="43.20226" lon="1.06798">
        <ele>246</ele>
        <time>2022-07-27T06:08:39Z</time>
      </trkpt>
      <trkpt lat="43.20228" lon="1.06802">
        <ele>246</ele>
        <time>2022-07-27T06:08:51Z</time>
      </trkpt>
      <trkpt lat="43.20231" lon="1.06808">
        <ele>247</ele>
        <time>2022-07-27T06:08:56Z</time>
      </trkpt>
      <trkpt lat="43.20236" lon="1.06817">
        <ele>248</ele>
        <time>2022-07-27T06:09:34Z</time>
      </trkpt>
      <trkpt lat="43.20238" lon="1.06799">
        <ele>247</ele>
        <time>2022-07-27T06:10:43Z</time>
      </trkpt>
      <trkpt lat="43.20229" lon="1.06803">
        <ele>247</ele>
        <time>2022-07-27T06:11:35Z</time>
      </trkpt>
      <trkpt lat="43.20223" lon="1.06798">
        <ele>247</ele>
        <time>2022-07-27T06:11:43Z</time>
      </trkpt>
      <trkpt lat="43.20217" lon="1.06788">
        <ele>247</ele>
        <time>2022-07-27T06:11:56Z</time>
      </trkpt>
      <trkpt lat="43.20212" lon="1.06773">
        <ele>246</ele>
        <time>2022-07-27T06:12:11Z</time>
      </trkpt>
      <trkpt lat="43.20207" lon="1.06767">
        <ele>246</ele>
        <time>2022-07-27T06:12:15Z</time>
      </trkpt>
      <trkpt lat="43.20198" lon="1.06755">
        <ele>245</ele>
        <time>2022-07-27T06:12:28Z</time>
      </trkpt>
      <trkpt lat="43.20192" lon="1.0671">
        <ele>244</ele>
        <time>2022-07-27T06:12:59Z</time>
      </trkpt>
      <trkpt lat="43.20191" lon="1.06703">
        <ele>243</ele>
        <time>2022-07-27T06:13:03Z</time>
      </trkpt>
      <trkpt lat="43.20188" lon="1.0669">
        <ele>243</ele>
        <time>2022-07-27T06:13:12Z</time>
      </trkpt>
      <trkpt lat="43.20188" lon="1.06683">
        <ele>243</ele>
        <time>2022-07-27T06:13:17Z</time>
      </trkpt>
      <trkpt lat="43.20187" lon="1.06677">
        <ele>242</ele>
        <time>2022-07-27T06:13:21Z</time>
      </trkpt>
      <trkpt lat="43.20185" lon="1.06662">
        <ele>242</ele>
        <time>2022-07-27T06:13:29Z</time>
      </trkpt>
      <trkpt lat="43.20182" lon="1.06655">
        <ele>242</ele>
        <time>2022-07-27T06:13:34Z</time>
      </trkpt>
      <trkpt lat="43.20177" lon="1.06639">
        <ele>241</ele>
        <time>2022-07-27T06:13:46Z</time>
      </trkpt>
      <trkpt lat="43.20175" lon="1.06623">
        <ele>241</ele>
        <time>2022-07-27T06:13:56Z</time>
      </trkpt>
      <trkpt lat="43.20173" lon="1.06618">
        <ele>241</ele>
        <time>2022-07-27T06:14:00Z</time>
      </trkpt>
      <trkpt lat="43.20172" lon="1.0661">
        <ele>241</ele>
        <time>2022-07-27T06:14:08Z</time>
      </trkpt>
      <trkpt lat="43.20162" lon="1.06562">
        <ele>241</ele>
        <time>2022-07-27T06:14:38Z</time>
      </trkpt>
      <trkpt lat="43.2016" lon="1.0655">
        <ele>241</ele>
        <time>2022-07-27T06:14:46Z</time>
      </trkpt>
      <trkpt lat="43.20154" lon="1.06537">
        <ele>241</ele>
        <time>2022-07-27T06:14:54Z</time>
      </trkpt>
      <trkpt lat="43.2015" lon="1.06533">
        <ele>240</ele>
        <time>2022-07-27T06:15:03Z</time>
      </trkpt>
      <trkpt lat="43.20148" lon="1.06525">
        <ele>240</ele>
        <time>2022-07-27T06:15:19Z</time>
      </trkpt>
      <trkpt lat="43.20148" lon="1.06517">
        <ele>240</ele>
        <time>2022-07-27T06:15:23Z</time>
      </trkpt>
      <trkpt lat="43.2014" lon="1.06489">
        <ele>240</ele>
        <time>2022-07-27T06:15:42Z</time>
      </trkpt>
      <trkpt lat="43.20142" lon="1.06483">
        <ele>240</ele>
        <time>2022-07-27T06:15:45Z</time>
      </trkpt>
      <trkpt lat="43.20141" lon="1.06477">
        <ele>240</ele>
        <time>2022-07-27T06:15:49Z</time>
      </trkpt>
      <trkpt lat="43.20138" lon="1.06468">
        <ele>241</ele>
        <time>2022-07-27T06:15:57Z</time>
      </trkpt>
      <trkpt lat="43.2014" lon="1.06463">
        <ele>241</ele>
        <time>2022-07-27T06:16:09Z</time>
      </trkpt>
      <trkpt lat="43.20137" lon="1.06456">
        <ele>241</ele>
        <time>2022-07-27T06:16:58Z</time>
      </trkpt>
      <trkpt lat="43.20134" lon="1.06445">
        <ele>241</ele>
        <time>2022-07-27T06:17:06Z</time>
      </trkpt>
      <trkpt lat="43.20133" lon="1.06426">
        <ele>240</ele>
        <time>2022-07-27T06:17:17Z</time>
      </trkpt>
      <trkpt lat="43.20128" lon="1.06402">
        <ele>240</ele>
        <time>2022-07-27T06:17:31Z</time>
      </trkpt>
      <trkpt lat="43.20129" lon="1.06386">
        <ele>241</ele>
        <time>2022-07-27T06:17:40Z</time>
      </trkpt>
      <trkpt lat="43.20124" lon="1.06372">
        <ele>241</ele>
        <time>2022-07-27T06:17:50Z</time>
      </trkpt>
      <trkpt lat="43.20123" lon="1.06367">
        <ele>241</ele>
        <time>2022-07-27T06:17:53Z</time>
      </trkpt>
      <trkpt lat="43.20126" lon="1.06352">
        <ele>241</ele>
        <time>2022-07-27T06:18:01Z</time>
      </trkpt>
      <trkpt lat="43.20126" lon="1.06345">
        <ele>241</ele>
        <time>2022-07-27T06:18:05Z</time>
      </trkpt>
      <trkpt lat="43.20121" lon="1.0633">
        <ele>241</ele>
        <time>2022-07-27T06:18:15Z</time>
      </trkpt>
      <trkpt lat="43.20117" lon="1.06325">
        <ele>241</ele>
        <time>2022-07-27T06:18:18Z</time>
      </trkpt>
      <trkpt lat="43.20116" lon="1.06304">
        <ele>241</ele>
        <time>2022-07-27T06:18:30Z</time>
      </trkpt>
      <trkpt lat="43.20114" lon="1.06297">
        <ele>241</ele>
        <time>2022-07-27T06:18:35Z</time>
      </trkpt>
      <trkpt lat="43.20109" lon="1.06284">
        <ele>241</ele>
        <time>2022-07-27T06:18:43Z</time>
      </trkpt>
      <trkpt lat="43.20098" lon="1.0623">
        <ele>241</ele>
        <time>2022-07-27T06:19:15Z</time>
      </trkpt>
      <trkpt lat="43.20097" lon="1.06224">
        <ele>241</ele>
        <time>2022-07-27T06:19:19Z</time>
      </trkpt>
      <trkpt lat="43.20097" lon="1.06218">
        <ele>241</ele>
        <time>2022-07-27T06:19:22Z</time>
      </trkpt>
      <trkpt lat="43.20095" lon="1.06207">
        <ele>241</ele>
        <time>2022-07-27T06:19:30Z</time>
      </trkpt>
      <trkpt lat="43.20089" lon="1.06181">
        <ele>240</ele>
        <time>2022-07-27T06:19:46Z</time>
      </trkpt>
      <trkpt lat="43.20088" lon="1.06175">
        <ele>241</ele>
        <time>2022-07-27T06:19:50Z</time>
      </trkpt>
      <trkpt lat="43.20095" lon="1.06157">
        <ele>241</ele>
        <time>2022-07-27T06:20:01Z</time>
      </trkpt>
      <trkpt lat="43.20092" lon="1.06144">
        <ele>241</ele>
        <time>2022-07-27T06:20:09Z</time>
      </trkpt>
      <trkpt lat="43.20081" lon="1.06091">
        <ele>241</ele>
        <time>2022-07-27T06:20:40Z</time>
      </trkpt>
      <trkpt lat="43.20077" lon="1.06061">
        <ele>241</ele>
        <time>2022-07-27T06:21:00Z</time>
      </trkpt>
      <trkpt lat="43.20077" lon="1.06053">
        <ele>241</ele>
        <time>2022-07-27T06:21:06Z</time>
      </trkpt>
      <trkpt lat="43.20074" lon="1.06026">
        <ele>241</ele>
        <time>2022-07-27T06:21:26Z</time>
      </trkpt>
      <trkpt lat="43.20078" lon="1.06005">
        <ele>241</ele>
        <time>2022-07-27T06:21:40Z</time>
      </trkpt>
      <trkpt lat="43.20086" lon="1.05989">
        <ele>240</ele>
        <time>2022-07-27T06:21:51Z</time>
      </trkpt>
      <trkpt lat="43.20089" lon="1.05985">
        <ele>241</ele>
        <time>2022-07-27T06:21:55Z</time>
      </trkpt>
      <trkpt lat="43.2009" lon="1.05979">
        <ele>241</ele>
        <time>2022-07-27T06:21:59Z</time>
      </trkpt>
      <trkpt lat="43.2009" lon="1.05972">
        <ele>241</ele>
        <time>2022-07-27T06:22:03Z</time>
      </trkpt>
      <trkpt lat="43.20091" lon="1.05967">
        <ele>241</ele>
        <time>2022-07-27T06:22:07Z</time>
      </trkpt>
      <trkpt lat="43.20091" lon="1.05961">
        <ele>241</ele>
        <time>2022-07-27T06:22:10Z</time>
      </trkpt>
      <trkpt lat="43.20095" lon="1.05949">
        <ele>241</ele>
        <time>2022-07-27T06:22:17Z</time>
      </trkpt>
      <trkpt lat="43.20097" lon="1.05936">
        <ele>241</ele>
        <time>2022-07-27T06:22:29Z</time>
      </trkpt>
      <trkpt lat="43.20101" lon="1.05932">
        <ele>241</ele>
        <time>2022-07-27T06:22:33Z</time>
      </trkpt>
      <trkpt lat="43.20109" lon="1.05929">
        <ele>241</ele>
        <time>2022-07-27T06:22:38Z</time>
      </trkpt>
      <trkpt lat="43.20116" lon="1.05924">
        <ele>241</ele>
        <time>2022-07-27T06:22:44Z</time>
      </trkpt>
      <trkpt lat="43.20121" lon="1.05921">
        <ele>241</ele>
        <time>2022-07-27T06:22:48Z</time>
      </trkpt>
      <trkpt lat="43.20126" lon="1.0592">
        <ele>241</ele>
        <time>2022-07-27T06:22:51Z</time>
      </trkpt>
      <trkpt lat="43.2013" lon="1.05918">
        <ele>241</ele>
        <time>2022-07-27T06:22:55Z</time>
      </trkpt>
      <trkpt lat="43.20132" lon="1.05915">
        <ele>241</ele>
        <time>2022-07-27T06:22:59Z</time>
      </trkpt>
      <trkpt lat="43.20136" lon="1.05915">
        <ele>241</ele>
        <time>2022-07-27T06:23:03Z</time>
      </trkpt>
      <trkpt lat="43.20147" lon="1.05908">
        <ele>241</ele>
        <time>2022-07-27T06:23:14Z</time>
      </trkpt>
      <trkpt lat="43.20155" lon="1.05903">
        <ele>241</ele>
        <time>2022-07-27T06:23:21Z</time>
      </trkpt>
      <trkpt lat="43.20156" lon="1.05898">
        <ele>241</ele>
        <time>2022-07-27T06:23:25Z</time>
      </trkpt>
      <trkpt lat="43.2016" lon="1.05898">
        <ele>241</ele>
        <time>2022-07-27T06:23:28Z</time>
      </trkpt>
      <trkpt lat="43.2016" lon="1.05895">
        <ele>242</ele>
        <time>2022-07-27T06:24:15Z</time>
      </trkpt>
      <trkpt lat="43.2017" lon="1.05899">
        <ele>242</ele>
        <time>2022-07-27T06:24:27Z</time>
      </trkpt>
      <trkpt lat="43.20173" lon="1.05896">
        <ele>242</ele>
        <time>2022-07-27T06:24:30Z</time>
      </trkpt>
      <trkpt lat="43.20176" lon="1.0589">
        <ele>242</ele>
        <time>2022-07-27T06:24:33Z</time>
      </trkpt>
      <trkpt lat="43.20182" lon="1.05887">
        <ele>242</ele>
        <time>2022-07-27T06:24:39Z</time>
      </trkpt>
      <trkpt lat="43.20185" lon="1.05885">
        <ele>242</ele>
        <time>2022-07-27T06:24:43Z</time>
      </trkpt>
      <trkpt lat="43.20213" lon="1.05877">
        <ele>242</ele>
        <time>2022-07-27T06:25:05Z</time>
      </trkpt>
      <trkpt lat="43.20234" lon="1.0589">
        <ele>242</ele>
        <time>2022-07-27T06:25:22Z</time>
      </trkpt>
      <trkpt lat="43.20261" lon="1.05932">
        <ele>242</ele>
        <time>2022-07-27T06:25:55Z</time>
      </trkpt>
      <trkpt lat="43.20267" lon="1.05941">
        <ele>242</ele>
        <time>2022-07-27T06:26:02Z</time>
      </trkpt>
      <trkpt lat="43.20269" lon="1.05947">
        <ele>242</ele>
        <time>2022-07-27T06:26:06Z</time>
      </trkpt>
      <trkpt lat="43.20273" lon="1.05957">
        <ele>242</ele>
        <time>2022-07-27T06:26:12Z</time>
      </trkpt>
      <trkpt lat="43.20274" lon="1.05963">
        <ele>242</ele>
        <time>2022-07-27T06:26:16Z</time>
      </trkpt>
      <trkpt lat="43.20282" lon="1.05978">
        <ele>242</ele>
        <time>2022-07-27T06:26:27Z</time>
      </trkpt>
      <trkpt lat="43.20286" lon="1.05988">
        <ele>242</ele>
        <time>2022-07-27T06:26:35Z</time>
      </trkpt>
      <trkpt lat="43.20298" lon="1.06005">
        <ele>243</ele>
        <time>2022-07-27T06:26:57Z</time>
      </trkpt>
      <trkpt lat="43.20306" lon="1.06002">
        <ele>243</ele>
        <time>2022-07-27T06:27:37Z</time>
      </trkpt>
      <trkpt lat="43.20315" lon="1.06">
        <ele>244</ele>
        <time>2022-07-27T06:28:23Z</time>
      </trkpt>
      <trkpt lat="43.20319" lon="1.05995">
        <ele>244</ele>
        <time>2022-07-27T06:28:28Z</time>
      </trkpt>
      <trkpt lat="43.2035" lon="1.05968">
        <ele>246</ele>
        <time>2022-07-27T06:29:01Z</time>
      </trkpt>
      <trkpt lat="43.20384" lon="1.0594">
        <ele>248</ele>
        <time>2022-07-27T06:29:34Z</time>
      </trkpt>
      <trkpt lat="43.20388" lon="1.05937">
        <ele>248</ele>
        <time>2022-07-27T06:29:39Z</time>
      </trkpt>
      <trkpt lat="43.20397" lon="1.05928">
        <ele>249</ele>
        <time>2022-07-27T06:29:48Z</time>
      </trkpt>
      <trkpt lat="43.20401" lon="1.05925">
        <ele>249</ele>
        <time>2022-07-27T06:29:52Z</time>
      </trkpt>
      <trkpt lat="43.20405" lon="1.05921">
        <ele>249</ele>
        <time>2022-07-27T06:29:56Z</time>
      </trkpt>
      <trkpt lat="43.20428" lon="1.05898">
        <ele>249</ele>
        <time>2022-07-27T06:30:20Z</time>
      </trkpt>
      <trkpt lat="43.20456" lon="1.05858">
        <ele>250</ele>
        <time>2022-07-27T06:30:52Z</time>
      </trkpt>
      <trkpt lat="43.20476" lon="1.05817">
        <ele>250</ele>
        <time>2022-07-27T06:31:23Z</time>
      </trkpt>
      <trkpt lat="43.20479" lon="1.05812">
        <ele>250</ele>
        <time>2022-07-27T06:31:27Z</time>
      </trkpt>
      <trkpt lat="43.20484" lon="1.05809">
        <ele>250</ele>
        <time>2022-07-27T06:31:35Z</time>
      </trkpt>
      <trkpt lat="43.20494" lon="1.0581">
        <ele>251</ele>
        <time>2022-07-27T06:31:49Z</time>
      </trkpt>
      <trkpt lat="43.205" lon="1.05812">
        <ele>251</ele>
        <time>2022-07-27T06:31:56Z</time>
      </trkpt>
      <trkpt lat="43.20511" lon="1.05827">
        <ele>251</ele>
        <time>2022-07-27T06:32:10Z</time>
      </trkpt>
      <trkpt lat="43.20516" lon="1.05835">
        <ele>252</ele>
        <time>2022-07-27T06:32:20Z</time>
      </trkpt>
      <trkpt lat="43.20521" lon="1.05845">
        <ele>252</ele>
        <time>2022-07-27T06:32:27Z</time>
      </trkpt>
      <trkpt lat="43.20542" lon="1.05883">
        <ele>252</ele>
        <time>2022-07-27T06:33:00Z</time>
      </trkpt>
      <trkpt lat="43.2055" lon="1.05885">
        <ele>252</ele>
        <time>2022-07-27T06:33:09Z</time>
      </trkpt>
      <trkpt lat="43.20561" lon="1.05882">
        <ele>253</ele>
        <time>2022-07-27T06:33:20Z</time>
      </trkpt>
      <trkpt lat="43.20568" lon="1.05883">
        <ele>253</ele>
        <time>2022-07-27T06:33:28Z</time>
      </trkpt>
      <trkpt lat="43.20576" lon="1.05881">
        <ele>254</ele>
        <time>2022-07-27T06:33:36Z</time>
      </trkpt>
      <trkpt lat="43.20582" lon="1.05885">
        <ele>254</ele>
        <time>2022-07-27T06:33:43Z</time>
      </trkpt>
      <trkpt lat="43.20589" lon="1.05888">
        <ele>254</ele>
        <time>2022-07-27T06:33:52Z</time>
      </trkpt>
      <trkpt lat="43.20594" lon="1.05885">
        <ele>255</ele>
        <time>2022-07-27T06:33:56Z</time>
      </trkpt>
      <trkpt lat="43.206" lon="1.05875">
        <ele>255</ele>
        <time>2022-07-27T06:34:04Z</time>
      </trkpt>
      <trkpt lat="43.20601" lon="1.0587">
        <ele>255</ele>
        <time>2022-07-27T06:34:08Z</time>
      </trkpt>
      <trkpt lat="43.20606" lon="1.05858">
        <ele>255</ele>
        <time>2022-07-27T06:34:17Z</time>
      </trkpt>
      <trkpt lat="43.2061" lon="1.05845">
        <ele>256</ele>
        <time>2022-07-27T06:34:26Z</time>
      </trkpt>
      <trkpt lat="43.20611" lon="1.05839">
        <ele>256</ele>
        <time>2022-07-27T06:34:30Z</time>
      </trkpt>
      <trkpt lat="43.20616" lon="1.0582">
        <ele>256</ele>
        <time>2022-07-27T06:34:42Z</time>
      </trkpt>
      <trkpt lat="43.20619" lon="1.05801">
        <ele>256</ele>
        <time>2022-07-27T06:34:54Z</time>
      </trkpt>
      <trkpt lat="43.20621" lon="1.05795">
        <ele>256</ele>
        <time>2022-07-27T06:34:58Z</time>
      </trkpt>
      <trkpt lat="43.20621" lon="1.05788">
        <ele>256</ele>
        <time>2022-07-27T06:35:02Z</time>
      </trkpt>
      <trkpt lat="43.20623" lon="1.05782">
        <ele>255</ele>
        <time>2022-07-27T06:35:08Z</time>
      </trkpt>
      <trkpt lat="43.20628" lon="1.05731">
        <ele>256</ele>
        <time>2022-07-27T06:35:39Z</time>
      </trkpt>
      <trkpt lat="43.20626" lon="1.05702">
        <ele>255</ele>
        <time>2022-07-27T06:35:56Z</time>
      </trkpt>
      <trkpt lat="43.20627" lon="1.05696">
        <ele>255</ele>
        <time>2022-07-27T06:36:00Z</time>
      </trkpt>
      <trkpt lat="43.20625" lon="1.05676">
        <ele>256</ele>
        <time>2022-07-27T06:36:13Z</time>
      </trkpt>
      <trkpt lat="43.20627" lon="1.0567">
        <ele>256</ele>
        <time>2022-07-27T06:36:17Z</time>
      </trkpt>
      <trkpt lat="43.20625" lon="1.05647">
        <ele>256</ele>
        <time>2022-07-27T06:36:33Z</time>
      </trkpt>
      <trkpt lat="43.20617" lon="1.05601">
        <ele>256</ele>
        <time>2022-07-27T06:37:04Z</time>
      </trkpt>
      <trkpt lat="43.20616" lon="1.05595">
        <ele>256</ele>
        <time>2022-07-27T06:37:08Z</time>
      </trkpt>
      <trkpt lat="43.20609" lon="1.05546">
        <ele>256</ele>
        <time>2022-07-27T06:37:40Z</time>
      </trkpt>
      <trkpt lat="43.20601" lon="1.05497">
        <ele>256</ele>
        <time>2022-07-27T06:38:12Z</time>
      </trkpt>
      <trkpt lat="43.20593" lon="1.05445">
        <ele>257</ele>
        <time>2022-07-27T06:38:45Z</time>
      </trkpt>
      <trkpt lat="43.20585" lon="1.05399">
        <ele>257</ele>
        <time>2022-07-27T06:39:16Z</time>
      </trkpt>
      <trkpt lat="43.20583" lon="1.05381">
        <ele>257</ele>
        <time>2022-07-27T06:39:28Z</time>
      </trkpt>
      <trkpt lat="43.20583" lon="1.05373">
        <ele>257</ele>
        <time>2022-07-27T06:39:34Z</time>
      </trkpt>
      <trkpt lat="43.20581" lon="1.05367">
        <ele>258</ele>
        <time>2022-07-27T06:39:37Z</time>
      </trkpt>
      <trkpt lat="43.20576" lon="1.0533">
        <ele>258</ele>
        <time>2022-07-27T06:40:01Z</time>
      </trkpt>
      <trkpt lat="43.20572" lon="1.05313">
        <ele>258</ele>
        <time>2022-07-27T06:40:13Z</time>
      </trkpt>
      <trkpt lat="43.20568" lon="1.05282">
        <ele>258</ele>
        <time>2022-07-27T06:40:33Z</time>
      </trkpt>
      <trkpt lat="43.20566" lon="1.05276">
        <ele>258</ele>
        <time>2022-07-27T06:40:37Z</time>
      </trkpt>
      <trkpt lat="43.20567" lon="1.05271">
        <ele>258</ele>
        <time>2022-07-27T06:41:33Z</time>
      </trkpt>
      <trkpt lat="43.20566" lon="1.05264">
        <ele>258</ele>
        <time>2022-07-27T06:42:03Z</time>
      </trkpt>
      <trkpt lat="43.20565" lon="1.05257">
        <ele>258</ele>
        <time>2022-07-27T06:42:07Z</time>
      </trkpt>
      <trkpt lat="43.20564" lon="1.05245">
        <ele>258</ele>
        <time>2022-07-27T06:42:16Z</time>
      </trkpt>
      <trkpt lat="43.2056" lon="1.05234">
        <ele>257</ele>
        <time>2022-07-27T06:42:24Z</time>
      </trkpt>
      <trkpt lat="43.2056" lon="1.0522">
        <ele>257</ele>
        <time>2022-07-27T06:42:32Z</time>
      </trkpt>
      <trkpt lat="43.20552" lon="1.05168">
        <ele>257</ele>
        <time>2022-07-27T06:43:03Z</time>
      </trkpt>
      <trkpt lat="43.2055" lon="1.05163">
        <ele>257</ele>
        <time>2022-07-27T06:43:06Z</time>
      </trkpt>
      <trkpt lat="43.20549" lon="1.0515">
        <ele>257</ele>
        <time>2022-07-27T06:43:14Z</time>
      </trkpt>
      <trkpt lat="43.20542" lon="1.05115">
        <ele>257</ele>
        <time>2022-07-27T06:43:36Z</time>
      </trkpt>
      <trkpt lat="43.20541" lon="1.05103">
        <ele>257</ele>
        <time>2022-07-27T06:43:43Z</time>
      </trkpt>
      <trkpt lat="43.20533" lon="1.05053">
        <ele>256</ele>
        <time>2022-07-27T06:44:14Z</time>
      </trkpt>
      <trkpt lat="43.20528" lon="1.05029">
        <ele>256</ele>
        <time>2022-07-27T06:44:29Z</time>
      </trkpt>
      <trkpt lat="43.20525" lon="1.05005">
        <ele>256</ele>
        <time>2022-07-27T06:44:45Z</time>
      </trkpt>
      <trkpt lat="43.20521" lon="1.04987">
        <ele>256</ele>
        <time>2022-07-27T06:44:56Z</time>
      </trkpt>
      <trkpt lat="43.20517" lon="1.0496">
        <ele>256</ele>
        <time>2022-07-27T06:45:12Z</time>
      </trkpt>
      <trkpt lat="43.20515" lon="1.04948">
        <ele>255</ele>
        <time>2022-07-27T06:45:21Z</time>
      </trkpt>
      <trkpt lat="43.20513" lon="1.04942">
        <ele>256</ele>
        <time>2022-07-27T06:45:24Z</time>
      </trkpt>
      <trkpt lat="43.20511" lon="1.04929">
        <ele>256</ele>
        <time>2022-07-27T06:45:33Z</time>
      </trkpt>
      <trkpt lat="43.20505" lon="1.04898">
        <ele>256</ele>
        <time>2022-07-27T06:45:53Z</time>
      </trkpt>
      <trkpt lat="43.20505" lon="1.04892">
        <ele>256</ele>
        <time>2022-07-27T06:45:57Z</time>
      </trkpt>
      <trkpt lat="43.20498" lon="1.04842">
        <ele>256</ele>
        <time>2022-07-27T06:46:29Z</time>
      </trkpt>
      <trkpt lat="43.20491" lon="1.04794">
        <ele>257</ele>
        <time>2022-07-27T06:47:00Z</time>
      </trkpt>
      <trkpt lat="43.20482" lon="1.04745">
        <ele>257</ele>
        <time>2022-07-27T06:47:31Z</time>
      </trkpt>
      <trkpt lat="43.20477" lon="1.04721">
        <ele>257</ele>
        <time>2022-07-27T06:47:47Z</time>
      </trkpt>
      <trkpt lat="43.20477" lon="1.04714">
        <ele>257</ele>
        <time>2022-07-27T06:47:51Z</time>
      </trkpt>
      <trkpt lat="43.20468" lon="1.0466">
        <ele>257</ele>
        <time>2022-07-27T06:48:25Z</time>
      </trkpt>
      <trkpt lat="43.20457" lon="1.04605">
        <ele>257</ele>
        <time>2022-07-27T06:48:59Z</time>
      </trkpt>
      <trkpt lat="43.20446" lon="1.04553">
        <ele>256</ele>
        <time>2022-07-27T06:49:32Z</time>
      </trkpt>
      <trkpt lat="43.20437" lon="1.04518">
        <ele>255</ele>
        <time>2022-07-27T06:49:54Z</time>
      </trkpt>
      <trkpt lat="43.20434" lon="1.04513">
        <ele>254</ele>
        <time>2022-07-27T06:49:58Z</time>
      </trkpt>
      <trkpt lat="43.20431" lon="1.04501">
        <ele>254</ele>
        <time>2022-07-27T06:50:05Z</time>
      </trkpt>
      <trkpt lat="43.20427" lon="1.04484">
        <ele>254</ele>
        <time>2022-07-27T06:50:15Z</time>
      </trkpt>
      <trkpt lat="43.20426" lon="1.04479">
        <ele>254</ele>
        <time>2022-07-27T06:50:18Z</time>
      </trkpt>
      <trkpt lat="43.20416" lon="1.04427">
        <ele>254</ele>
        <time>2022-07-27T06:50:52Z</time>
      </trkpt>
      <trkpt lat="43.20406" lon="1.04378">
        <ele>254</ele>
        <time>2022-07-27T06:51:22Z</time>
      </trkpt>
      <trkpt lat="43.20405" lon="1.04372">
        <ele>254</ele>
        <time>2022-07-27T06:51:25Z</time>
      </trkpt>
      <trkpt lat="43.20399" lon="1.04347">
        <ele>254</ele>
        <time>2022-07-27T06:51:41Z</time>
      </trkpt>
      <trkpt lat="43.20391" lon="1.04299">
        <ele>254</ele>
        <time>2022-07-27T06:52:13Z</time>
      </trkpt>
      <trkpt lat="43.20387" lon="1.04278">
        <ele>254</ele>
        <time>2022-07-27T06:52:27Z</time>
      </trkpt>
      <trkpt lat="43.2038" lon="1.04259">
        <ele>254</ele>
        <time>2022-07-27T06:52:39Z</time>
      </trkpt>
      <trkpt lat="43.20379" lon="1.04254">
        <ele>254</ele>
        <time>2022-07-27T06:52:43Z</time>
      </trkpt>
      <trkpt lat="43.20374" lon="1.04231">
        <ele>254</ele>
        <time>2022-07-27T06:52:59Z</time>
      </trkpt>
      <trkpt lat="43.20372" lon="1.04224">
        <ele>255</ele>
        <time>2022-07-27T06:53:03Z</time>
      </trkpt>
      <trkpt lat="43.2037" lon="1.04215">
        <ele>255</ele>
        <time>2022-07-27T06:53:09Z</time>
      </trkpt>
      <trkpt lat="43.2036" lon="1.04187">
        <ele>255</ele>
        <time>2022-07-27T06:53:29Z</time>
      </trkpt>
      <trkpt lat="43.2036" lon="1.0418">
        <ele>254</ele>
        <time>2022-07-27T06:53:37Z</time>
      </trkpt>
      <trkpt lat="43.20359" lon="1.04173">
        <ele>255</ele>
        <time>2022-07-27T06:53:42Z</time>
      </trkpt>
      <trkpt lat="43.20356" lon="1.04168">
        <ele>255</ele>
        <time>2022-07-27T06:53:46Z</time>
      </trkpt>
      <trkpt lat="43.20353" lon="1.04154">
        <ele>255</ele>
        <time>2022-07-27T06:53:54Z</time>
      </trkpt>
      <trkpt lat="43.20348" lon="1.04144">
        <ele>254</ele>
        <time>2022-07-27T06:54:02Z</time>
      </trkpt>
      <trkpt lat="43.20346" lon="1.04139">
        <ele>255</ele>
        <time>2022-07-27T06:54:06Z</time>
      </trkpt>
      <trkpt lat="43.20336" lon="1.041">
        <ele>255</ele>
        <time>2022-07-27T06:54:32Z</time>
      </trkpt>
      <trkpt lat="43.20329" lon="1.04081">
        <ele>255</ele>
        <time>2022-07-27T06:54:46Z</time>
      </trkpt>
      <trkpt lat="43.20327" lon="1.04075">
        <ele>256</ele>
        <time>2022-07-27T06:55:13Z</time>
      </trkpt>
      <trkpt lat="43.20324" lon="1.04063">
        <ele>255</ele>
        <time>2022-07-27T06:56:01Z</time>
      </trkpt>
      <trkpt lat="43.20321" lon="1.04058">
        <ele>255</ele>
        <time>2022-07-27T06:56:05Z</time>
      </trkpt>
      <trkpt lat="43.2031" lon="1.04021">
        <ele>257</ele>
        <time>2022-07-27T06:56:33Z</time>
      </trkpt>
      <trkpt lat="43.20299" lon="1.04003">
        <ele>257</ele>
        <time>2022-07-27T06:56:46Z</time>
      </trkpt>
      <trkpt lat="43.20276" lon="1.03974">
        <ele>257</ele>
        <time>2022-07-27T06:57:11Z</time>
      </trkpt>
      <trkpt lat="43.20272" lon="1.03972">
        <ele>257</ele>
        <time>2022-07-27T06:57:15Z</time>
      </trkpt>
      <trkpt lat="43.20251" lon="1.03954">
        <ele>256</ele>
        <time>2022-07-27T06:57:35Z</time>
      </trkpt>
      <trkpt lat="43.2024" lon="1.03932">
        <ele>256</ele>
        <time>2022-07-27T06:57:51Z</time>
      </trkpt>
      <trkpt lat="43.20222" lon="1.03885">
        <ele>256</ele>
        <time>2022-07-27T06:58:22Z</time>
      </trkpt>
      <trkpt lat="43.20211" lon="1.03863">
        <ele>256</ele>
        <time>2022-07-27T06:58:38Z</time>
      </trkpt>
      <trkpt lat="43.20208" lon="1.03859">
        <ele>256</ele>
        <time>2022-07-27T06:58:42Z</time>
      </trkpt>
      <trkpt lat="43.20186" lon="1.03825">
        <ele>256</ele>
        <time>2022-07-27T06:59:10Z</time>
      </trkpt>
      <trkpt lat="43.20163" lon="1.03792">
        <ele>256</ele>
        <time>2022-07-27T06:59:38Z</time>
      </trkpt>
      <trkpt lat="43.20156" lon="1.0378">
        <ele>256</ele>
        <time>2022-07-27T06:59:47Z</time>
      </trkpt>
      <trkpt lat="43.20126" lon="1.03748">
        <ele>256</ele>
        <time>2022-07-27T07:00:19Z</time>
      </trkpt>
      <trkpt lat="43.20111" lon="1.03725">
        <ele>256</ele>
        <time>2022-07-27T07:00:36Z</time>
      </trkpt>
      <trkpt lat="43.20102" lon="1.03718">
        <ele>256</ele>
        <time>2022-07-27T07:00:46Z</time>
      </trkpt>
      <trkpt lat="43.2009" lon="1.03704">
        <ele>256</ele>
        <time>2022-07-27T07:00:58Z</time>
      </trkpt>
      <trkpt lat="43.20082" lon="1.03696">
        <ele>256</ele>
        <time>2022-07-27T07:01:06Z</time>
      </trkpt>
      <trkpt lat="43.20053" lon="1.03673">
        <ele>255</ele>
        <time>2022-07-27T07:01:38Z</time>
      </trkpt>
      <trkpt lat="43.20044" lon="1.03667">
        <ele>255</ele>
        <time>2022-07-27T07:01:46Z</time>
      </trkpt>
      <trkpt lat="43.20037" lon="1.03659">
        <ele>255</ele>
        <time>2022-07-27T07:01:54Z</time>
      </trkpt>
      <trkpt lat="43.2003" lon="1.03656">
        <ele>255</ele>
        <time>2022-07-27T07:02:00Z</time>
      </trkpt>
      <trkpt lat="43.20026" lon="1.03652">
        <ele>254</ele>
        <time>2022-07-27T07:02:04Z</time>
      </trkpt>
      <trkpt lat="43.20021" lon="1.03649">
        <ele>255</ele>
        <time>2022-07-27T07:02:08Z</time>
      </trkpt>
      <trkpt lat="43.20006" lon="1.03632">
        <ele>255</ele>
        <time>2022-07-27T07:02:25Z</time>
      </trkpt>
      <trkpt lat="43.19982" lon="1.03617">
        <ele>255</ele>
        <time>2022-07-27T07:02:46Z</time>
      </trkpt>
      <trkpt lat="43.1996" lon="1.03608">
        <ele>255</ele>
        <time>2022-07-27T07:03:06Z</time>
      </trkpt>
      <trkpt lat="43.19947" lon="1.03599">
        <ele>255</ele>
        <time>2022-07-27T07:03:18Z</time>
      </trkpt>
      <trkpt lat="43.19914" lon="1.03592">
        <ele>255</ele>
        <time>2022-07-27T07:03:45Z</time>
      </trkpt>
      <trkpt lat="43.19901" lon="1.03585">
        <ele>255</ele>
        <time>2022-07-27T07:03:56Z</time>
      </trkpt>
      <trkpt lat="43.19892" lon="1.03581">
        <ele>255</ele>
        <time>2022-07-27T07:04:04Z</time>
      </trkpt>
      <trkpt lat="43.19885" lon="1.03576">
        <ele>255</ele>
        <time>2022-07-27T07:04:10Z</time>
      </trkpt>
      <trkpt lat="43.1988" lon="1.03574">
        <ele>255</ele>
        <time>2022-07-27T07:04:14Z</time>
      </trkpt>
      <trkpt lat="43.19856" lon="1.03557">
        <ele>255</ele>
        <time>2022-07-27T07:04:37Z</time>
      </trkpt>
      <trkpt lat="43.19842" lon="1.03549">
        <ele>255</ele>
        <time>2022-07-27T07:04:50Z</time>
      </trkpt>
      <trkpt lat="43.1982" lon="1.03537">
        <ele>255</ele>
        <time>2022-07-27T07:05:11Z</time>
      </trkpt>
      <trkpt lat="43.19814" lon="1.03535">
        <ele>255</ele>
        <time>2022-07-27T07:05:16Z</time>
      </trkpt>
      <trkpt lat="43.1981" lon="1.03532">
        <ele>255</ele>
        <time>2022-07-27T07:05:20Z</time>
      </trkpt>
      <trkpt lat="43.19769" lon="1.03519">
        <ele>256</ele>
        <time>2022-07-27T07:05:54Z</time>
      </trkpt>
      <trkpt lat="43.19764" lon="1.03517">
        <ele>256</ele>
        <time>2022-07-27T07:05:59Z</time>
      </trkpt>
      <trkpt lat="43.1976" lon="1.03513">
        <ele>256</ele>
        <time>2022-07-27T07:06:03Z</time>
      </trkpt>
      <trkpt lat="43.19751" lon="1.03507">
        <ele>255</ele>
        <time>2022-07-27T07:06:12Z</time>
      </trkpt>
      <trkpt lat="43.19739" lon="1.03492">
        <ele>254</ele>
        <time>2022-07-27T07:06:30Z</time>
      </trkpt>
      <trkpt lat="43.19731" lon="1.03476">
        <ele>255</ele>
        <time>2022-07-27T07:06:42Z</time>
      </trkpt>
      <trkpt lat="43.19725" lon="1.03466">
        <ele>255</ele>
        <time>2022-07-27T07:06:55Z</time>
      </trkpt>
      <trkpt lat="43.19719" lon="1.03453">
        <ele>256</ele>
        <time>2022-07-27T07:07:09Z</time>
      </trkpt>
      <trkpt lat="43.19699" lon="1.03428">
        <ele>257</ele>
        <time>2022-07-27T07:07:34Z</time>
      </trkpt>
      <trkpt lat="43.19686" lon="1.03402">
        <ele>258</ele>
        <time>2022-07-27T07:07:55Z</time>
      </trkpt>
      <trkpt lat="43.1968" lon="1.03396">
        <ele>258</ele>
        <time>2022-07-27T07:08:01Z</time>
      </trkpt>
      <trkpt lat="43.19676" lon="1.03389">
        <ele>258</ele>
        <time>2022-07-27T07:08:07Z</time>
      </trkpt>
      <trkpt lat="43.19666" lon="1.03377">
        <ele>258</ele>
        <time>2022-07-27T07:08:20Z</time>
      </trkpt>
      <trkpt lat="43.19663" lon="1.03371">
        <ele>258</ele>
        <time>2022-07-27T07:08:24Z</time>
      </trkpt>
      <trkpt lat="43.19651" lon="1.0336">
        <ele>258</ele>
        <time>2022-07-27T07:08:36Z</time>
      </trkpt>
      <trkpt lat="43.19646" lon="1.03354">
        <ele>259</ele>
        <time>2022-07-27T07:08:41Z</time>
      </trkpt>
      <trkpt lat="43.19638" lon="1.03345">
        <ele>258</ele>
        <time>2022-07-27T07:08:51Z</time>
      </trkpt>
      <trkpt lat="43.19602" lon="1.03319">
        <ele>258</ele>
        <time>2022-07-27T07:09:24Z</time>
      </trkpt>
      <trkpt lat="43.19598" lon="1.03317">
        <ele>258</ele>
        <time>2022-07-27T07:09:28Z</time>
      </trkpt>
      <trkpt lat="43.19586" lon="1.03303">
        <ele>256</ele>
        <time>2022-07-27T07:09:46Z</time>
      </trkpt>
      <trkpt lat="43.19584" lon="1.03303">
        <ele>256</ele>
        <time>2022-07-27T07:10:30Z</time>
      </trkpt>
      <trkpt lat="43.19584" lon="1.03292">
        <ele>256</ele>
        <time>2022-07-27T07:11:23Z</time>
      </trkpt>
      <trkpt lat="43.19584" lon="1.03284">
        <ele>256</ele>
        <time>2022-07-27T07:11:28Z</time>
      </trkpt>
      <trkpt lat="43.19582" lon="1.03268">
        <ele>254</ele>
        <time>2022-07-27T07:11:41Z</time>
      </trkpt>
      <trkpt lat="43.19576" lon="1.03257">
        <ele>253</ele>
        <time>2022-07-27T07:11:50Z</time>
      </trkpt>
      <trkpt lat="43.19576" lon="1.03249">
        <ele>253</ele>
        <time>2022-07-27T07:11:55Z</time>
      </trkpt>
      <trkpt lat="43.19573" lon="1.03242">
        <ele>252</ele>
        <time>2022-07-27T07:12:00Z</time>
      </trkpt>
      <trkpt lat="43.19569" lon="1.03236">
        <ele>252</ele>
        <time>2022-07-27T07:12:05Z</time>
      </trkpt>
      <trkpt lat="43.19569" lon="1.0323">
        <ele>252</ele>
        <time>2022-07-27T07:12:10Z</time>
      </trkpt>
      <trkpt lat="43.19561" lon="1.03183">
        <ele>251</ele>
        <time>2022-07-27T07:12:36Z</time>
      </trkpt>
      <trkpt lat="43.19548" lon="1.0316">
        <ele>252</ele>
        <time>2022-07-27T07:12:54Z</time>
      </trkpt>
      <trkpt lat="43.19529" lon="1.03131">
        <ele>252</ele>
        <time>2022-07-27T07:13:17Z</time>
      </trkpt>
      <trkpt lat="43.19526" lon="1.03121">
        <ele>252</ele>
        <time>2022-07-27T07:13:23Z</time>
      </trkpt>
      <trkpt lat="43.19523" lon="1.03115">
        <ele>252</ele>
        <time>2022-07-27T07:13:27Z</time>
      </trkpt>
      <trkpt lat="43.19508" lon="1.03062">
        <ele>251</ele>
        <time>2022-07-27T07:14:00Z</time>
      </trkpt>
      <trkpt lat="43.19503" lon="1.03046">
        <ele>251</ele>
        <time>2022-07-27T07:14:11Z</time>
      </trkpt>
      <trkpt lat="43.19498" lon="1.0303">
        <ele>251</ele>
        <time>2022-07-27T07:14:21Z</time>
      </trkpt>
      <trkpt lat="43.19496" lon="1.03025">
        <ele>251</ele>
        <time>2022-07-27T07:14:24Z</time>
      </trkpt>
      <trkpt lat="43.19495" lon="1.03018">
        <ele>251</ele>
        <time>2022-07-27T07:14:28Z</time>
      </trkpt>
      <trkpt lat="43.19482" lon="1.02963">
        <ele>251</ele>
        <time>2022-07-27T07:15:02Z</time>
      </trkpt>
      <trkpt lat="43.19481" lon="1.02956">
        <ele>251</ele>
        <time>2022-07-27T07:15:06Z</time>
      </trkpt>
      <trkpt lat="43.19479" lon="1.02949">
        <ele>252</ele>
        <time>2022-07-27T07:15:10Z</time>
      </trkpt>
      <trkpt lat="43.19477" lon="1.02943">
        <ele>252</ele>
        <time>2022-07-27T07:15:14Z</time>
      </trkpt>
      <trkpt lat="43.19476" lon="1.02929">
        <ele>252</ele>
        <time>2022-07-27T07:15:22Z</time>
      </trkpt>
      <trkpt lat="43.19472" lon="1.02912">
        <ele>252</ele>
        <time>2022-07-27T07:15:32Z</time>
      </trkpt>
      <trkpt lat="43.1947" lon="1.02907">
        <ele>252</ele>
        <time>2022-07-27T07:15:35Z</time>
      </trkpt>
      <trkpt lat="43.19465" lon="1.02889">
        <ele>252</ele>
        <time>2022-07-27T07:15:47Z</time>
      </trkpt>
      <trkpt lat="43.19456" lon="1.02866">
        <ele>252</ele>
        <time>2022-07-27T07:16:04Z</time>
      </trkpt>
      <trkpt lat="43.19441" lon="1.0281">
        <ele>251</ele>
        <time>2022-07-27T07:16:37Z</time>
      </trkpt>
      <trkpt lat="43.19433" lon="1.02756">
        <ele>251</ele>
        <time>2022-07-27T07:17:10Z</time>
      </trkpt>
      <trkpt lat="43.19432" lon="1.0275">
        <ele>251</ele>
        <time>2022-07-27T07:17:13Z</time>
      </trkpt>
      <trkpt lat="43.19426" lon="1.02711">
        <ele>251</ele>
        <time>2022-07-27T07:17:36Z</time>
      </trkpt>
      <trkpt lat="43.19426" lon="1.02697">
        <ele>251</ele>
        <time>2022-07-27T07:17:45Z</time>
      </trkpt>
      <trkpt lat="43.19424" lon="1.02685">
        <ele>251</ele>
        <time>2022-07-27T07:17:53Z</time>
      </trkpt>
      <trkpt lat="43.19425" lon="1.02671">
        <ele>251</ele>
        <time>2022-07-27T07:18:01Z</time>
      </trkpt>
      <trkpt lat="43.19427" lon="1.02664">
        <ele>251</ele>
        <time>2022-07-27T07:18:04Z</time>
      </trkpt>
      <trkpt lat="43.19429" lon="1.0265">
        <ele>251</ele>
        <time>2022-07-27T07:18:12Z</time>
      </trkpt>
      <trkpt lat="43.19431" lon="1.02644">
        <ele>251</ele>
        <time>2022-07-27T07:18:16Z</time>
      </trkpt>
      <trkpt lat="43.19434" lon="1.02627">
        <ele>252</ele>
        <time>2022-07-27T07:18:26Z</time>
      </trkpt>
      <trkpt lat="43.19436" lon="1.02622">
        <ele>252</ele>
        <time>2022-07-27T07:18:29Z</time>
      </trkpt>
      <trkpt lat="43.19439" lon="1.02617">
        <ele>252</ele>
        <time>2022-07-27T07:18:33Z</time>
      </trkpt>
      <trkpt lat="43.1944" lon="1.02612">
        <ele>252</ele>
        <time>2022-07-27T07:18:36Z</time>
      </trkpt>
      <trkpt lat="43.19443" lon="1.02607">
        <ele>252</ele>
        <time>2022-07-27T07:18:39Z</time>
      </trkpt>
      <trkpt lat="43.19449" lon="1.02599">
        <ele>252</ele>
        <time>2022-07-27T07:18:47Z</time>
      </trkpt>
      <trkpt lat="43.19462" lon="1.02562">
        <ele>253</ele>
        <time>2022-07-27T07:19:12Z</time>
      </trkpt>
      <trkpt lat="43.19472" lon="1.0254">
        <ele>255</ele>
        <time>2022-07-27T07:19:29Z</time>
      </trkpt>
      <trkpt lat="43.19474" lon="1.02526">
        <ele>255</ele>
        <time>2022-07-27T07:19:39Z</time>
      </trkpt>
      <trkpt lat="43.19468" lon="1.0248">
        <ele>257</ele>
        <time>2022-07-27T07:20:13Z</time>
      </trkpt>
      <trkpt lat="43.19455" lon="1.02439">
        <ele>259</ele>
        <time>2022-07-27T07:20:42Z</time>
      </trkpt>
      <trkpt lat="43.19451" lon="1.02395">
        <ele>260</ele>
        <time>2022-07-27T07:21:15Z</time>
      </trkpt>
      <trkpt lat="43.19451" lon="1.02387">
        <ele>261</ele>
        <time>2022-07-27T07:21:20Z</time>
      </trkpt>
      <trkpt lat="43.19454" lon="1.02382">
        <ele>261</ele>
        <time>2022-07-27T07:21:25Z</time>
      </trkpt>
      <trkpt lat="43.19473" lon="1.02362">
        <ele>262</ele>
        <time>2022-07-27T07:21:46Z</time>
      </trkpt>
      <trkpt lat="43.19476" lon="1.0236">
        <ele>262</ele>
        <time>2022-07-27T07:21:51Z</time>
      </trkpt>
      <trkpt lat="43.19479" lon="1.02355">
        <ele>262</ele>
        <time>2022-07-27T07:22:01Z</time>
      </trkpt>
      <trkpt lat="43.19484" lon="1.02355">
        <ele>262</ele>
        <time>2022-07-27T07:22:49Z</time>
      </trkpt>
      <trkpt lat="43.19516" lon="1.02323">
        <ele>262</ele>
        <time>2022-07-27T07:23:22Z</time>
      </trkpt>
      <trkpt lat="43.19527" lon="1.02307">
        <ele>262</ele>
        <time>2022-07-27T07:23:37Z</time>
      </trkpt>
      <trkpt lat="43.19532" lon="1.02307">
        <ele>262</ele>
        <time>2022-07-27T07:23:41Z</time>
      </trkpt>
      <trkpt lat="43.19535" lon="1.02301">
        <ele>263</ele>
        <time>2022-07-27T07:24:26Z</time>
      </trkpt>
      <trkpt lat="43.19543" lon="1.02296">
        <ele>263</ele>
        <time>2022-07-27T07:24:33Z</time>
      </trkpt>
      <trkpt lat="43.19572" lon="1.02265">
        <ele>264</ele>
        <time>2022-07-27T07:25:07Z</time>
      </trkpt>
      <trkpt lat="43.19605" lon="1.0223">
        <ele>264</ele>
        <time>2022-07-27T07:25:40Z</time>
      </trkpt>
      <trkpt lat="43.1962" lon="1.02212">
        <ele>264</ele>
        <time>2022-07-27T07:25:56Z</time>
      </trkpt>
      <trkpt lat="43.19651" lon="1.02187">
        <ele>265</ele>
        <time>2022-07-27T07:26:25Z</time>
      </trkpt>
      <trkpt lat="43.19662" lon="1.02173">
        <ele>265</ele>
        <time>2022-07-27T07:26:37Z</time>
      </trkpt>
      <trkpt lat="43.19677" lon="1.02159">
        <ele>266</ele>
        <time>2022-07-27T07:26:52Z</time>
      </trkpt>
      <trkpt lat="43.19679" lon="1.02154">
        <ele>266</ele>
        <time>2022-07-27T07:26:58Z</time>
      </trkpt>
      <trkpt lat="43.19688" lon="1.0214">
        <ele>266</ele>
        <time>2022-07-27T07:27:10Z</time>
      </trkpt>
      <trkpt lat="43.19691" lon="1.02135">
        <ele>266</ele>
        <time>2022-07-27T07:27:14Z</time>
      </trkpt>
      <trkpt lat="43.19703" lon="1.02124">
        <ele>267</ele>
        <time>2022-07-27T07:27:26Z</time>
      </trkpt>
      <trkpt lat="43.19706" lon="1.02119">
        <ele>267</ele>
        <time>2022-07-27T07:27:30Z</time>
      </trkpt>
      <trkpt lat="43.19707" lon="1.02114">
        <ele>267</ele>
        <time>2022-07-27T07:27:34Z</time>
      </trkpt>
      <trkpt lat="43.19717" lon="1.02101">
        <ele>267</ele>
        <time>2022-07-27T07:27:45Z</time>
      </trkpt>
      <trkpt lat="43.19719" lon="1.02095">
        <ele>266</ele>
        <time>2022-07-27T07:27:49Z</time>
      </trkpt>
      <trkpt lat="43.19721" lon="1.0209">
        <ele>267</ele>
        <time>2022-07-27T07:27:52Z</time>
      </trkpt>
      <trkpt lat="43.19724" lon="1.02087">
        <ele>267</ele>
        <time>2022-07-27T07:27:56Z</time>
      </trkpt>
      <trkpt lat="43.19722" lon="1.02078">
        <ele>267</ele>
        <time>2022-07-27T07:28:02Z</time>
      </trkpt>
      <trkpt lat="43.19723" lon="1.0204">
        <ele>266</ele>
        <time>2022-07-27T07:28:25Z</time>
      </trkpt>
      <trkpt lat="43.19726" lon="1.02028">
        <ele>266</ele>
        <time>2022-07-27T07:28:33Z</time>
      </trkpt>
      <trkpt lat="43.19728" lon="1.0202">
        <ele>267</ele>
        <time>2022-07-27T07:28:39Z</time>
      </trkpt>
      <trkpt lat="43.19728" lon="1.02013">
        <ele>267</ele>
        <time>2022-07-27T07:28:44Z</time>
      </trkpt>
      <trkpt lat="43.19723" lon="1.01995">
        <ele>267</ele>
        <time>2022-07-27T07:28:56Z</time>
      </trkpt>
      <trkpt lat="43.19721" lon="1.01982">
        <ele>267</ele>
        <time>2022-07-27T07:29:04Z</time>
      </trkpt>
      <trkpt lat="43.1972" lon="1.01968">
        <ele>267</ele>
        <time>2022-07-27T07:29:12Z</time>
      </trkpt>
      <trkpt lat="43.19717" lon="1.01956">
        <ele>267</ele>
        <time>2022-07-27T07:29:20Z</time>
      </trkpt>
      <trkpt lat="43.19707" lon="1.01917">
        <ele>267</ele>
        <time>2022-07-27T07:29:48Z</time>
      </trkpt>
      <trkpt lat="43.19707" lon="1.0191">
        <ele>267</ele>
        <time>2022-07-27T07:29:52Z</time>
      </trkpt>
      <trkpt lat="43.19696" lon="1.0186">
        <ele>266</ele>
        <time>2022-07-27T07:30:24Z</time>
      </trkpt>
      <trkpt lat="43.19692" lon="1.01842">
        <ele>266</ele>
        <time>2022-07-27T07:30:40Z</time>
      </trkpt>
      <trkpt lat="43.19693" lon="1.01841">
        <ele>266</ele>
        <time>2022-07-27T07:33:22Z</time>
      </trkpt>
      <trkpt lat="43.1969" lon="1.01843">
        <ele>267</ele>
        <time>2022-07-27T07:43:17Z</time>
      </trkpt>
      <trkpt lat="43.19684" lon="1.01843">
        <ele>267</ele>
        <time>2022-07-27T07:43:47Z</time>
      </trkpt>
      <trkpt lat="43.19689" lon="1.01832">
        <ele>267</ele>
        <time>2022-07-27T07:44:05Z</time>
      </trkpt>
      <trkpt lat="43.19688" lon="1.01824">
        <ele>267</ele>
        <time>2022-07-27T07:44:09Z</time>
      </trkpt>
      <trkpt lat="43.19684" lon="1.01811">
        <ele>267</ele>
        <time>2022-07-27T07:44:17Z</time>
      </trkpt>
      <trkpt lat="43.19684" lon="1.0179">
        <ele>267</ele>
        <time>2022-07-27T07:44:30Z</time>
      </trkpt>
      <trkpt lat="43.19684" lon="1.01766">
        <ele>266</ele>
        <time>2022-07-27T07:44:47Z</time>
      </trkpt>
      <trkpt lat="43.19696" lon="1.01715">
        <ele>266</ele>
        <time>2022-07-27T07:45:22Z</time>
      </trkpt>
      <trkpt lat="43.19698" lon="1.01689">
        <ele>266</ele>
        <time>2022-07-27T07:45:38Z</time>
      </trkpt>
      <trkpt lat="43.19701" lon="1.01674">
        <ele>266</ele>
        <time>2022-07-27T07:45:47Z</time>
      </trkpt>
      <trkpt lat="43.19701" lon="1.01657">
        <ele>266</ele>
        <time>2022-07-27T07:45:57Z</time>
      </trkpt>
      <trkpt lat="43.19703" lon="1.01649">
        <ele>266</ele>
        <time>2022-07-27T07:46:01Z</time>
      </trkpt>
      <trkpt lat="43.19701" lon="1.01643">
        <ele>266</ele>
        <time>2022-07-27T07:46:05Z</time>
      </trkpt>
      <trkpt lat="43.1971" lon="1.01592">
        <ele>266</ele>
        <time>2022-07-27T07:46:38Z</time>
      </trkpt>
      <trkpt lat="43.19711" lon="1.01574">
        <ele>266</ele>
        <time>2022-07-27T07:46:51Z</time>
      </trkpt>
      <trkpt lat="43.19713" lon="1.01568">
        <ele>266</ele>
        <time>2022-07-27T07:46:55Z</time>
      </trkpt>
      <trkpt lat="43.19715" lon="1.01553">
        <ele>266</ele>
        <time>2022-07-27T07:47:04Z</time>
      </trkpt>
      <trkpt lat="43.19718" lon="1.01547">
        <ele>266</ele>
        <time>2022-07-27T07:47:08Z</time>
      </trkpt>
      <trkpt lat="43.19719" lon="1.01539">
        <ele>266</ele>
        <time>2022-07-27T07:47:13Z</time>
      </trkpt>
      <trkpt lat="43.19719" lon="1.0153">
        <ele>267</ele>
        <time>2022-07-27T07:47:18Z</time>
      </trkpt>
      <trkpt lat="43.19721" lon="1.01523">
        <ele>267</ele>
        <time>2022-07-27T07:47:23Z</time>
      </trkpt>
      <trkpt lat="43.19728" lon="1.01473">
        <ele>266</ele>
        <time>2022-07-27T07:47:52Z</time>
      </trkpt>
      <trkpt lat="43.19733" lon="1.01458">
        <ele>266</ele>
        <time>2022-07-27T07:48:02Z</time>
      </trkpt>
      <trkpt lat="43.19735" lon="1.01449">
        <ele>267</ele>
        <time>2022-07-27T07:48:08Z</time>
      </trkpt>
      <trkpt lat="43.19738" lon="1.01441">
        <ele>267</ele>
        <time>2022-07-27T07:48:13Z</time>
      </trkpt>
      <trkpt lat="43.1974" lon="1.01423">
        <ele>267</ele>
        <time>2022-07-27T07:48:23Z</time>
      </trkpt>
      <trkpt lat="43.19743" lon="1.01415">
        <ele>267</ele>
        <time>2022-07-27T07:48:29Z</time>
      </trkpt>
      <trkpt lat="43.19752" lon="1.01395">
        <ele>267</ele>
        <time>2022-07-27T07:48:42Z</time>
      </trkpt>
      <trkpt lat="43.19755" lon="1.0138">
        <ele>267</ele>
        <time>2022-07-27T07:48:52Z</time>
      </trkpt>
      <trkpt lat="43.1976" lon="1.01373">
        <ele>267</ele>
        <time>2022-07-27T07:48:57Z</time>
      </trkpt>
      <trkpt lat="43.19769" lon="1.01348">
        <ele>267</ele>
        <time>2022-07-27T07:49:14Z</time>
      </trkpt>
      <trkpt lat="43.19796" lon="1.01309">
        <ele>267</ele>
        <time>2022-07-27T07:49:47Z</time>
      </trkpt>
      <trkpt lat="43.19804" lon="1.01296">
        <ele>267</ele>
        <time>2022-07-27T07:50:03Z</time>
      </trkpt>
      <trkpt lat="43.1983" lon="1.01264">
        <ele>267</ele>
        <time>2022-07-27T07:50:33Z</time>
      </trkpt>
      <trkpt lat="43.19836" lon="1.01254">
        <ele>267</ele>
        <time>2022-07-27T07:50:39Z</time>
      </trkpt>
      <trkpt lat="43.19838" lon="1.01246">
        <ele>267</ele>
        <time>2022-07-27T07:50:44Z</time>
      </trkpt>
      <trkpt lat="43.19843" lon="1.01237">
        <ele>267</ele>
        <time>2022-07-27T07:50:51Z</time>
      </trkpt>
      <trkpt lat="43.19846" lon="1.01228">
        <ele>267</ele>
        <time>2022-07-27T07:50:57Z</time>
      </trkpt>
      <trkpt lat="43.19872" lon="1.01193">
        <ele>267</ele>
        <time>2022-07-27T07:51:27Z</time>
      </trkpt>
      <trkpt lat="43.19874" lon="1.01185">
        <ele>267</ele>
        <time>2022-07-27T07:51:32Z</time>
      </trkpt>
      <trkpt lat="43.19876" lon="1.01179">
        <ele>267</ele>
        <time>2022-07-27T07:51:44Z</time>
      </trkpt>
      <trkpt lat="43.19868" lon="1.0117">
        <ele>267</ele>
        <time>2022-07-27T07:52:33Z</time>
      </trkpt>
      <trkpt lat="43.19864" lon="1.01154">
        <ele>267</ele>
        <time>2022-07-27T07:52:46Z</time>
      </trkpt>
      <trkpt lat="43.19852" lon="1.01119">
        <ele>267</ele>
        <time>2022-07-27T07:53:11Z</time>
      </trkpt>
      <trkpt lat="43.19852" lon="1.011">
        <ele>268</ele>
        <time>2022-07-27T07:53:24Z</time>
      </trkpt>
      <trkpt lat="43.1986" lon="1.01096">
        <ele>268</ele>
        <time>2022-07-27T07:53:47Z</time>
      </trkpt>
      <trkpt lat="43.19867" lon="1.01093">
        <ele>268</ele>
        <time>2022-07-27T07:53:54Z</time>
      </trkpt>
      <trkpt lat="43.19895" lon="1.01088">
        <ele>269</ele>
        <time>2022-07-27T07:54:20Z</time>
      </trkpt>
      <trkpt lat="43.19894" lon="1.01086">
        <ele>268</ele>
        <time>2022-07-27T07:55:40Z</time>
      </trkpt>
      <trkpt lat="43.19884" lon="1.01091">
        <ele>267</ele>
        <time>2022-07-27T07:55:56Z</time>
      </trkpt>
      <trkpt lat="43.19875" lon="1.01097">
        <ele>267</ele>
        <time>2022-07-27T07:56:13Z</time>
      </trkpt>
      <trkpt lat="43.19862" lon="1.01101">
        <ele>267</ele>
        <time>2022-07-27T07:56:25Z</time>
      </trkpt>
      <trkpt lat="43.19857" lon="1.011">
        <ele>266</ele>
        <time>2022-07-27T07:56:30Z</time>
      </trkpt>
      <trkpt lat="43.19856" lon="1.01089">
        <ele>266</ele>
        <time>2022-07-27T07:56:38Z</time>
      </trkpt>
      <trkpt lat="43.19853" lon="1.01083">
        <ele>266</ele>
        <time>2022-07-27T07:56:46Z</time>
      </trkpt>
      <trkpt lat="43.19853" lon="1.01063">
        <ele>267</ele>
        <time>2022-07-27T07:57:01Z</time>
      </trkpt>
      <trkpt lat="43.19857" lon="1.0105">
        <ele>267</ele>
        <time>2022-07-27T07:57:10Z</time>
      </trkpt>
      <trkpt lat="43.19863" lon="1.01045">
        <ele>267</ele>
        <time>2022-07-27T07:57:16Z</time>
      </trkpt>
      <trkpt lat="43.19871" lon="1.01023">
        <ele>267</ele>
        <time>2022-07-27T07:57:29Z</time>
      </trkpt>
      <trkpt lat="43.19878" lon="1.01014">
        <ele>267</ele>
        <time>2022-07-27T07:57:39Z</time>
      </trkpt>
      <trkpt lat="43.19886" lon="1.01016">
        <ele>268</ele>
        <time>2022-07-27T07:57:53Z</time>
      </trkpt>
      <trkpt lat="43.19891" lon="1.01024">
        <ele>268</ele>
        <time>2022-07-27T07:58:19Z</time>
      </trkpt>
      <trkpt lat="43.19897" lon="1.01019">
        <ele>268</ele>
        <time>2022-07-27T07:58:44Z</time>
      </trkpt>
      <trkpt lat="43.19895" lon="1.01009">
        <ele>267</ele>
        <time>2022-07-27T07:59:02Z</time>
      </trkpt>
      <trkpt lat="43.19892" lon="1.01017">
        <ele>267</ele>
        <time>2022-07-27T07:59:18Z</time>
      </trkpt>
      <trkpt lat="43.19887" lon="1.01015">
        <ele>267</ele>
        <time>2022-07-27T07:59:23Z</time>
      </trkpt>
      <trkpt lat="43.19884" lon="1.01008">
        <ele>267</ele>
        <time>2022-07-27T07:59:29Z</time>
      </trkpt>
      <trkpt lat="43.19883" lon="1.01001">
        <ele>267</ele>
        <time>2022-07-27T07:59:49Z</time>
      </trkpt>
      <trkpt lat="43.19879" lon="1.00994">
        <ele>268</ele>
        <time>2022-07-27T08:00:13Z</time>
      </trkpt>
      <trkpt lat="43.19874" lon="1.00979">
        <ele>268</ele>
        <time>2022-07-27T08:00:24Z</time>
      </trkpt>
      <trkpt lat="43.1987" lon="1.00974">
        <ele>268</ele>
        <time>2022-07-27T08:00:28Z</time>
      </trkpt>
      <trkpt lat="43.19866" lon="1.0096">
        <ele>268</ele>
        <time>2022-07-27T08:00:36Z</time>
      </trkpt>
      <trkpt lat="43.1984" lon="1.00909">
        <ele>268</ele>
        <time>2022-07-27T08:01:11Z</time>
      </trkpt>
      <trkpt lat="43.19832" lon="1.00883">
        <ele>268</ele>
        <time>2022-07-27T08:01:29Z</time>
      </trkpt>
      <trkpt lat="43.19832" lon="1.00874">
        <ele>268</ele>
        <time>2022-07-27T08:01:35Z</time>
      </trkpt>
      <trkpt lat="43.19829" lon="1.00866">
        <ele>268</ele>
        <time>2022-07-27T08:01:40Z</time>
      </trkpt>
      <trkpt lat="43.19809" lon="1.00827">
        <ele>268</ele>
        <time>2022-07-27T08:02:06Z</time>
      </trkpt>
      <trkpt lat="43.19803" lon="1.00794">
        <ele>268</ele>
        <time>2022-07-27T08:02:27Z</time>
      </trkpt>
      <trkpt lat="43.19798" lon="1.00782">
        <ele>268</ele>
        <time>2022-07-27T08:02:36Z</time>
      </trkpt>
      <trkpt lat="43.19798" lon="1.00774">
        <ele>268</ele>
        <time>2022-07-27T08:02:41Z</time>
      </trkpt>
      <trkpt lat="43.19793" lon="1.00759">
        <ele>269</ele>
        <time>2022-07-27T08:02:50Z</time>
      </trkpt>
      <trkpt lat="43.19793" lon="1.00752">
        <ele>269</ele>
        <time>2022-07-27T08:02:55Z</time>
      </trkpt>
      <trkpt lat="43.19791" lon="1.00745">
        <ele>269</ele>
        <time>2022-07-27T08:02:59Z</time>
      </trkpt>
      <trkpt lat="43.1979" lon="1.00735">
        <ele>269</ele>
        <time>2022-07-27T08:03:06Z</time>
      </trkpt>
      <trkpt lat="43.19791" lon="1.00728">
        <ele>269</ele>
        <time>2022-07-27T08:03:09Z</time>
      </trkpt>
      <trkpt lat="43.1979" lon="1.00722">
        <ele>269</ele>
        <time>2022-07-27T08:03:13Z</time>
      </trkpt>
      <trkpt lat="43.19785" lon="1.0071">
        <ele>269</ele>
        <time>2022-07-27T08:03:21Z</time>
      </trkpt>
      <trkpt lat="43.19781" lon="1.00706">
        <ele>269</ele>
        <time>2022-07-27T08:03:25Z</time>
      </trkpt>
      <trkpt lat="43.19781" lon="1.00699">
        <ele>269</ele>
        <time>2022-07-27T08:03:29Z</time>
      </trkpt>
      <trkpt lat="43.19795" lon="1.0064">
        <ele>269</ele>
        <time>2022-07-27T08:04:02Z</time>
      </trkpt>
      <trkpt lat="43.19798" lon="1.00626">
        <ele>269</ele>
        <time>2022-07-27T08:04:11Z</time>
      </trkpt>
      <trkpt lat="43.19797" lon="1.0062">
        <ele>269</ele>
        <time>2022-07-27T08:04:15Z</time>
      </trkpt>
      <trkpt lat="43.198" lon="1.006">
        <ele>268</ele>
        <time>2022-07-27T08:05:05Z</time>
      </trkpt>
      <trkpt lat="43.19807" lon="1.00548">
        <ele>268</ele>
        <time>2022-07-27T08:05:34Z</time>
      </trkpt>
      <trkpt lat="43.19809" lon="1.00542">
        <ele>268</ele>
        <time>2022-07-27T08:05:38Z</time>
      </trkpt>
      <trkpt lat="43.1981" lon="1.00535">
        <ele>268</ele>
        <time>2022-07-27T08:05:42Z</time>
      </trkpt>
      <trkpt lat="43.19812" lon="1.00528">
        <ele>268</ele>
        <time>2022-07-27T08:05:46Z</time>
      </trkpt>
      <trkpt lat="43.19812" lon="1.00521">
        <ele>268</ele>
        <time>2022-07-27T08:05:50Z</time>
      </trkpt>
      <trkpt lat="43.19814" lon="1.00514">
        <ele>268</ele>
        <time>2022-07-27T08:05:54Z</time>
      </trkpt>
      <trkpt lat="43.19819" lon="1.00507">
        <ele>268</ele>
        <time>2022-07-27T08:06:02Z</time>
      </trkpt>
      <trkpt lat="43.1982" lon="1.00473">
        <ele>268</ele>
        <time>2022-07-27T08:06:23Z</time>
      </trkpt>
      <trkpt lat="43.19815" lon="1.00416">
        <ele>267</ele>
        <time>2022-07-27T08:06:57Z</time>
      </trkpt>
      <trkpt lat="43.19812" lon="1.00367">
        <ele>267</ele>
        <time>2022-07-27T08:07:28Z</time>
      </trkpt>
      <trkpt lat="43.1981" lon="1.00353">
        <ele>267</ele>
        <time>2022-07-27T08:07:37Z</time>
      </trkpt>
      <trkpt lat="43.19811" lon="1.00346">
        <ele>267</ele>
        <time>2022-07-27T08:07:41Z</time>
      </trkpt>
      <trkpt lat="43.19804" lon="1.00291">
        <ele>268</ele>
        <time>2022-07-27T08:08:14Z</time>
      </trkpt>
      <trkpt lat="43.19796" lon="1.00241">
        <ele>268</ele>
        <time>2022-07-27T08:08:44Z</time>
      </trkpt>
      <trkpt lat="43.19796" lon="1.00235">
        <ele>268</ele>
        <time>2022-07-27T08:08:48Z</time>
      </trkpt>
      <trkpt lat="43.19784" lon="1.00185">
        <ele>268</ele>
        <time>2022-07-27T08:09:19Z</time>
      </trkpt>
      <trkpt lat="43.19779" lon="1.00167">
        <ele>268</ele>
        <time>2022-07-27T08:09:31Z</time>
      </trkpt>
      <trkpt lat="43.19774" lon="1.00155">
        <ele>269</ele>
        <time>2022-07-27T08:09:40Z</time>
      </trkpt>
      <trkpt lat="43.19767" lon="1.00121">
        <ele>269</ele>
        <time>2022-07-27T08:10:03Z</time>
      </trkpt>
      <trkpt lat="43.19767" lon="1.00114">
        <ele>269</ele>
        <time>2022-07-27T08:10:07Z</time>
      </trkpt>
      <trkpt lat="43.19765" lon="1.00108">
        <ele>269</ele>
        <time>2022-07-27T08:10:10Z</time>
      </trkpt>
      <trkpt lat="43.19759" lon="1.00094">
        <ele>269</ele>
        <time>2022-07-27T08:10:18Z</time>
      </trkpt>
      <trkpt lat="43.19758" lon="1.00088">
        <ele>269</ele>
        <time>2022-07-27T08:10:23Z</time>
      </trkpt>
      <trkpt lat="43.19756" lon="1.00084">
        <ele>269</ele>
        <time>2022-07-27T08:10:27Z</time>
      </trkpt>
      <trkpt lat="43.19753" lon="1.00071">
        <ele>269</ele>
        <time>2022-07-27T08:10:34Z</time>
      </trkpt>
      <trkpt lat="43.19746" lon="1.00034">
        <ele>269</ele>
        <time>2022-07-27T08:10:56Z</time>
      </trkpt>
      <trkpt lat="43.19744" lon="1.00027">
        <ele>269</ele>
        <time>2022-07-27T08:11:00Z</time>
      </trkpt>
      <trkpt lat="43.19739" lon="1.00016">
        <ele>270</ele>
        <time>2022-07-27T08:11:10Z</time>
      </trkpt>
      <trkpt lat="43.19734" lon="0.99996">
        <ele>270</ele>
        <time>2022-07-27T08:11:22Z</time>
      </trkpt>
      <trkpt lat="43.19734" lon="0.99988">
        <ele>270</ele>
        <time>2022-07-27T08:11:27Z</time>
      </trkpt>
      <trkpt lat="43.19728" lon="0.99977">
        <ele>270</ele>
        <time>2022-07-27T08:11:33Z</time>
      </trkpt>
      <trkpt lat="43.19727" lon="0.99971">
        <ele>270</ele>
        <time>2022-07-27T08:11:36Z</time>
      </trkpt>
      <trkpt lat="43.19725" lon="0.99958">
        <ele>270</ele>
        <time>2022-07-27T08:11:45Z</time>
      </trkpt>
      <trkpt lat="43.19723" lon="0.99951">
        <ele>270</ele>
        <time>2022-07-27T08:11:50Z</time>
      </trkpt>
      <trkpt lat="43.19724" lon="0.99944">
        <ele>270</ele>
        <time>2022-07-27T08:11:54Z</time>
      </trkpt>
      <trkpt lat="43.19723" lon="0.99924">
        <ele>271</ele>
        <time>2022-07-27T08:12:06Z</time>
      </trkpt>
      <trkpt lat="43.19722" lon="0.99917">
        <ele>271</ele>
        <time>2022-07-27T08:12:10Z</time>
      </trkpt>
      <trkpt lat="43.19722" lon="0.99909">
        <ele>271</ele>
        <time>2022-07-27T08:12:14Z</time>
      </trkpt>
      <trkpt lat="43.1972" lon="0.99898">
        <ele>271</ele>
        <time>2022-07-27T08:12:23Z</time>
      </trkpt>
      <trkpt lat="43.19719" lon="0.99894">
        <ele>271</ele>
        <time>2022-07-27T08:14:04Z</time>
      </trkpt>
      <trkpt lat="43.19718" lon="0.99876">
        <ele>270</ele>
        <time>2022-07-27T08:14:21Z</time>
      </trkpt>
      <trkpt lat="43.19715" lon="0.99865">
        <ele>270</ele>
        <time>2022-07-27T08:14:29Z</time>
      </trkpt>
      <trkpt lat="43.19713" lon="0.99841">
        <ele>270</ele>
        <time>2022-07-27T08:14:46Z</time>
      </trkpt>
      <trkpt lat="43.19713" lon="0.99835">
        <ele>270</ele>
        <time>2022-07-27T08:14:50Z</time>
      </trkpt>
      <trkpt lat="43.19706" lon="0.99797">
        <ele>270</ele>
        <time>2022-07-27T08:15:13Z</time>
      </trkpt>
      <trkpt lat="43.19711" lon="0.99748">
        <ele>271</ele>
        <time>2022-07-27T08:15:45Z</time>
      </trkpt>
      <trkpt lat="43.19711" lon="0.99742">
        <ele>271</ele>
        <time>2022-07-27T08:15:49Z</time>
      </trkpt>
      <trkpt lat="43.19709" lon="0.99731">
        <ele>271</ele>
        <time>2022-07-27T08:15:57Z</time>
      </trkpt>
      <trkpt lat="43.19688" lon="0.99686">
        <ele>272</ele>
        <time>2022-07-27T08:16:29Z</time>
      </trkpt>
      <trkpt lat="43.19669" lon="0.99644">
        <ele>272</ele>
        <time>2022-07-27T08:16:58Z</time>
      </trkpt>
      <trkpt lat="43.1966" lon="0.99628">
        <ele>272</ele>
        <time>2022-07-27T08:17:10Z</time>
      </trkpt>
      <trkpt lat="43.19659" lon="0.99623">
        <ele>273</ele>
        <time>2022-07-27T08:18:29Z</time>
      </trkpt>
      <trkpt lat="43.19656" lon="0.99617">
        <ele>273</ele>
        <time>2022-07-27T08:18:35Z</time>
      </trkpt>
      <trkpt lat="43.19653" lon="0.99609">
        <ele>273</ele>
        <time>2022-07-27T08:18:42Z</time>
      </trkpt>
      <trkpt lat="43.19651" lon="0.99605">
        <ele>273</ele>
        <time>2022-07-27T08:18:45Z</time>
      </trkpt>
      <trkpt lat="43.19648" lon="0.99602">
        <ele>273</ele>
        <time>2022-07-27T08:18:49Z</time>
      </trkpt>
      <trkpt lat="43.19641" lon="0.99588">
        <ele>272</ele>
        <time>2022-07-27T08:18:58Z</time>
      </trkpt>
      <trkpt lat="43.19621" lon="0.99541">
        <ele>272</ele>
        <time>2022-07-27T08:19:31Z</time>
      </trkpt>
      <trkpt lat="43.19619" lon="0.99536">
        <ele>272</ele>
        <time>2022-07-27T08:19:34Z</time>
      </trkpt>
      <trkpt lat="43.19608" lon="0.99511">
        <ele>272</ele>
        <time>2022-07-27T08:19:52Z</time>
      </trkpt>
      <trkpt lat="43.19604" lon="0.99502">
        <ele>272</ele>
        <time>2022-07-27T08:19:58Z</time>
      </trkpt>
      <trkpt lat="43.19583" lon="0.9946">
        <ele>273</ele>
        <time>2022-07-27T08:20:29Z</time>
      </trkpt>
      <trkpt lat="43.19578" lon="0.99448">
        <ele>273</ele>
        <time>2022-07-27T08:20:38Z</time>
      </trkpt>
      <trkpt lat="43.19573" lon="0.9944">
        <ele>273</ele>
        <time>2022-07-27T08:20:44Z</time>
      </trkpt>
      <trkpt lat="43.19568" lon="0.99426">
        <ele>274</ele>
        <time>2022-07-27T08:20:54Z</time>
      </trkpt>
      <trkpt lat="43.19547" lon="0.99383">
        <ele>274</ele>
        <time>2022-07-27T08:21:25Z</time>
      </trkpt>
      <trkpt lat="43.19538" lon="0.99361">
        <ele>275</ele>
        <time>2022-07-27T08:21:41Z</time>
      </trkpt>
      <trkpt lat="43.19524" lon="0.99334">
        <ele>274</ele>
        <time>2022-07-27T08:22:00Z</time>
      </trkpt>
      <trkpt lat="43.19523" lon="0.99329">
        <ele>275</ele>
        <time>2022-07-27T08:22:04Z</time>
      </trkpt>
      <trkpt lat="43.19518" lon="0.99319">
        <ele>274</ele>
        <time>2022-07-27T08:22:11Z</time>
      </trkpt>
      <trkpt lat="43.19497" lon="0.99274">
        <ele>274</ele>
        <time>2022-07-27T08:22:42Z</time>
      </trkpt>
      <trkpt lat="43.19476" lon="0.99231">
        <ele>274</ele>
        <time>2022-07-27T08:23:13Z</time>
      </trkpt>
      <trkpt lat="43.19457" lon="0.99193">
        <ele>274</ele>
        <time>2022-07-27T08:23:41Z</time>
      </trkpt>
      <trkpt lat="43.19448" lon="0.99181">
        <ele>274</ele>
        <time>2022-07-27T08:23:51Z</time>
      </trkpt>
      <trkpt lat="43.19446" lon="0.99178">
        <ele>274</ele>
        <time>2022-07-27T08:23:54Z</time>
      </trkpt>
      <trkpt lat="43.19428" lon="0.99167">
        <ele>274</ele>
        <time>2022-07-27T08:24:11Z</time>
      </trkpt>
      <trkpt lat="43.19421" lon="0.9916">
        <ele>274</ele>
        <time>2022-07-27T08:24:18Z</time>
      </trkpt>
      <trkpt lat="43.1942" lon="0.99154">
        <ele>274</ele>
        <time>2022-07-27T08:24:22Z</time>
      </trkpt>
      <trkpt lat="43.19421" lon="0.99148">
        <ele>273</ele>
        <time>2022-07-27T08:24:26Z</time>
      </trkpt>
      <trkpt lat="43.19426" lon="0.99138">
        <ele>273</ele>
        <time>2022-07-27T08:24:33Z</time>
      </trkpt>
      <trkpt lat="43.19434" lon="0.9913">
        <ele>272</ele>
        <time>2022-07-27T08:24:42Z</time>
      </trkpt>
      <trkpt lat="43.19466" lon="0.9911">
        <ele>272</ele>
        <time>2022-07-27T08:25:11Z</time>
      </trkpt>
      <trkpt lat="43.19468" lon="0.99102">
        <ele>272</ele>
        <time>2022-07-27T08:25:17Z</time>
      </trkpt>
      <trkpt lat="43.19476" lon="0.99094">
        <ele>272</ele>
        <time>2022-07-27T08:25:25Z</time>
      </trkpt>
      <trkpt lat="43.19482" lon="0.9909">
        <ele>273</ele>
        <time>2022-07-27T08:25:34Z</time>
      </trkpt>
      <trkpt lat="43.1949" lon="0.9908">
        <ele>274</ele>
        <time>2022-07-27T08:25:45Z</time>
      </trkpt>
      <trkpt lat="43.19495" lon="0.99075">
        <ele>275</ele>
        <time>2022-07-27T08:25:52Z</time>
      </trkpt>
      <trkpt lat="43.19501" lon="0.99067">
        <ele>275</ele>
        <time>2022-07-27T08:26:01Z</time>
      </trkpt>
      <trkpt lat="43.19502" lon="0.99062">
        <ele>275</ele>
        <time>2022-07-27T08:26:05Z</time>
      </trkpt>
      <trkpt lat="43.19501" lon="0.99056">
        <ele>275</ele>
        <time>2022-07-27T08:26:10Z</time>
      </trkpt>
      <trkpt lat="43.19493" lon="0.99035">
        <ele>275</ele>
        <time>2022-07-27T08:26:28Z</time>
      </trkpt>
      <trkpt lat="43.19488" lon="0.99017">
        <ele>275</ele>
        <time>2022-07-27T08:26:40Z</time>
      </trkpt>
      <trkpt lat="43.19483" lon="0.99007">
        <ele>275</ele>
        <time>2022-07-27T08:26:48Z</time>
      </trkpt>
      <trkpt lat="43.19476" lon="0.98985">
        <ele>276</ele>
        <time>2022-07-27T08:27:05Z</time>
      </trkpt>
      <trkpt lat="43.19477" lon="0.9897">
        <ele>277</ele>
        <time>2022-07-27T08:27:16Z</time>
      </trkpt>
      <trkpt lat="43.19478" lon="0.98965">
        <ele>277</ele>
        <time>2022-07-27T08:27:30Z</time>
      </trkpt>
      <trkpt lat="43.1948" lon="0.98959">
        <ele>277</ele>
        <time>2022-07-27T08:27:36Z</time>
      </trkpt>
      <trkpt lat="43.19475" lon="0.98953">
        <ele>277</ele>
        <time>2022-07-27T08:27:44Z</time>
      </trkpt>
      <trkpt lat="43.19471" lon="0.9895">
        <ele>276</ele>
        <time>2022-07-27T08:27:56Z</time>
      </trkpt>
      <trkpt lat="43.19469" lon="0.98943">
        <ele>276</ele>
        <time>2022-07-27T08:28:07Z</time>
      </trkpt>
      <trkpt lat="43.19465" lon="0.98939">
        <ele>276</ele>
        <time>2022-07-27T08:28:11Z</time>
      </trkpt>
      <trkpt lat="43.19457" lon="0.98931">
        <ele>276</ele>
        <time>2022-07-27T08:28:20Z</time>
      </trkpt>
      <trkpt lat="43.19453" lon="0.98924">
        <ele>276</ele>
        <time>2022-07-27T08:28:25Z</time>
      </trkpt>
      <trkpt lat="43.19437" lon="0.98902">
        <ele>275</ele>
        <time>2022-07-27T08:28:45Z</time>
      </trkpt>
      <trkpt lat="43.19412" lon="0.98853">
        <ele>276</ele>
        <time>2022-07-27T08:29:19Z</time>
      </trkpt>
      <trkpt lat="43.19396" lon="0.98818">
        <ele>276</ele>
        <time>2022-07-27T08:29:43Z</time>
      </trkpt>
      <trkpt lat="43.19394" lon="0.98812">
        <ele>276</ele>
        <time>2022-07-27T08:29:47Z</time>
      </trkpt>
      <trkpt lat="43.19378" lon="0.98767">
        <ele>276</ele>
        <time>2022-07-27T08:30:20Z</time>
      </trkpt>
      <trkpt lat="43.19375" lon="0.98754">
        <ele>277</ele>
        <time>2022-07-27T08:30:27Z</time>
      </trkpt>
      <trkpt lat="43.19373" lon="0.9874">
        <ele>277</ele>
        <time>2022-07-27T08:30:35Z</time>
      </trkpt>
      <trkpt lat="43.19376" lon="0.98736">
        <ele>277</ele>
        <time>2022-07-27T08:32:36Z</time>
      </trkpt>
      <trkpt lat="43.19376" lon="0.98734">
        <ele>277</ele>
        <time>2022-07-27T08:36:21Z</time>
      </trkpt>
      <trkpt lat="43.19374" lon="0.98735">
        <ele>277</ele>
        <time>2022-07-27T08:37:14Z</time>
      </trkpt>
      <trkpt lat="43.19374" lon="0.98734">
        <ele>276</ele>
        <time>2022-07-27T08:40:32Z</time>
      </trkpt>
      <trkpt lat="43.19377" lon="0.98737">
        <ele>278</ele>
        <time>2022-07-27T08:43:58Z</time>
      </trkpt>
      <trkpt lat="43.19376" lon="0.98737">
        <ele>277</ele>
        <time>2022-07-27T08:45:16Z</time>
      </trkpt>
      <trkpt lat="43.19366" lon="0.98746">
        <ele>278</ele>
        <time>2022-07-27T08:51:25Z</time>
      </trkpt>
      <trkpt lat="43.19368" lon="0.98736">
        <ele>280</ele>
        <time>2022-07-27T08:59:16Z</time>
      </trkpt>
      <trkpt lat="43.19371" lon="0.98722">
        <ele>281</ele>
        <time>2022-07-27T08:59:29Z</time>
      </trkpt>
      <trkpt lat="43.19367" lon="0.98701">
        <ele>281</ele>
        <time>2022-07-27T08:59:47Z</time>
      </trkpt>
      <trkpt lat="43.19367" lon="0.98682">
        <ele>280</ele>
        <time>2022-07-27T09:00:02Z</time>
      </trkpt>
      <trkpt lat="43.19362" lon="0.98642">
        <ele>280</ele>
        <time>2022-07-27T09:00:28Z</time>
      </trkpt>
      <trkpt lat="43.19363" lon="0.98634">
        <ele>280</ele>
        <time>2022-07-27T09:00:33Z</time>
      </trkpt>
      <trkpt lat="43.19359" lon="0.98604">
        <ele>281</ele>
        <time>2022-07-27T09:00:54Z</time>
      </trkpt>
      <trkpt lat="43.19355" lon="0.98589">
        <ele>281</ele>
        <time>2022-07-27T09:01:04Z</time>
      </trkpt>
      <trkpt lat="43.19351" lon="0.98583">
        <ele>281</ele>
        <time>2022-07-27T09:01:09Z</time>
      </trkpt>
      <trkpt lat="43.19343" lon="0.98549">
        <ele>280</ele>
        <time>2022-07-27T09:01:31Z</time>
      </trkpt>
      <trkpt lat="43.19319" lon="0.98504">
        <ele>280</ele>
        <time>2022-07-27T09:02:05Z</time>
      </trkpt>
      <trkpt lat="43.19312" lon="0.98483">
        <ele>280</ele>
        <time>2022-07-27T09:02:20Z</time>
      </trkpt>
      <trkpt lat="43.19308" lon="0.98478">
        <ele>280</ele>
        <time>2022-07-27T09:02:24Z</time>
      </trkpt>
      <trkpt lat="43.193" lon="0.9844">
        <ele>280</ele>
        <time>2022-07-27T09:02:43Z</time>
      </trkpt>
      <trkpt lat="43.19296" lon="0.98412">
        <ele>281</ele>
        <time>2022-07-27T09:03:02Z</time>
      </trkpt>
      <trkpt lat="43.19287" lon="0.98388">
        <ele>282</ele>
        <time>2022-07-27T09:03:29Z</time>
      </trkpt>
      <trkpt lat="43.19283" lon="0.98381">
        <ele>283</ele>
        <time>2022-07-27T09:03:34Z</time>
      </trkpt>
      <trkpt lat="43.19278" lon="0.98367">
        <ele>283</ele>
        <time>2022-07-27T09:03:43Z</time>
      </trkpt>
      <trkpt lat="43.19257" lon="0.98327">
        <ele>283</ele>
        <time>2022-07-27T09:04:14Z</time>
      </trkpt>
      <trkpt lat="43.19254" lon="0.98319">
        <ele>283</ele>
        <time>2022-07-27T09:04:20Z</time>
      </trkpt>
      <trkpt lat="43.1925" lon="0.98312">
        <ele>283</ele>
        <time>2022-07-27T09:04:26Z</time>
      </trkpt>
      <trkpt lat="43.19245" lon="0.98307">
        <ele>283</ele>
        <time>2022-07-27T09:04:32Z</time>
      </trkpt>
      <trkpt lat="43.19241" lon="0.98299">
        <ele>283</ele>
        <time>2022-07-27T09:04:37Z</time>
      </trkpt>
      <trkpt lat="43.1924" lon="0.98291">
        <ele>283</ele>
        <time>2022-07-27T09:04:42Z</time>
      </trkpt>
      <trkpt lat="43.19231" lon="0.98271">
        <ele>283</ele>
        <time>2022-07-27T09:04:55Z</time>
      </trkpt>
      <trkpt lat="43.19227" lon="0.98265">
        <ele>283</ele>
        <time>2022-07-27T09:05:11Z</time>
      </trkpt>
      <trkpt lat="43.19229" lon="0.98265">
        <ele>281</ele>
        <time>2022-07-27T09:07:35Z</time>
      </trkpt>
      <trkpt lat="43.19224" lon="0.98257">
        <ele>281</ele>
        <time>2022-07-27T09:08:36Z</time>
      </trkpt>
      <trkpt lat="43.19201" lon="0.98209">
        <ele>280</ele>
        <time>2022-07-27T09:09:10Z</time>
      </trkpt>
      <trkpt lat="43.19199" lon="0.98202">
        <ele>280</ele>
        <time>2022-07-27T09:09:15Z</time>
      </trkpt>
      <trkpt lat="43.19196" lon="0.98196">
        <ele>280</ele>
        <time>2022-07-27T09:10:19Z</time>
      </trkpt>
      <trkpt lat="43.19192" lon="0.98189">
        <ele>281</ele>
        <time>2022-07-27T09:10:25Z</time>
      </trkpt>
      <trkpt lat="43.19184" lon="0.98153">
        <ele>281</ele>
        <time>2022-07-27T09:10:46Z</time>
      </trkpt>
      <trkpt lat="43.19189" lon="0.98148">
        <ele>281</ele>
        <time>2022-07-27T09:10:52Z</time>
      </trkpt>
      <trkpt lat="43.19192" lon="0.98142">
        <ele>282</ele>
        <time>2022-07-27T09:11:00Z</time>
      </trkpt>
      <trkpt lat="43.19194" lon="0.98148">
        <ele>282</ele>
        <time>2022-07-27T09:11:46Z</time>
      </trkpt>
      <trkpt lat="43.19186" lon="0.98145">
        <ele>281</ele>
        <time>2022-07-27T09:12:00Z</time>
      </trkpt>
      <trkpt lat="43.19181" lon="0.98138">
        <ele>280</ele>
        <time>2022-07-27T09:12:07Z</time>
      </trkpt>
      <trkpt lat="43.1918" lon="0.98132">
        <ele>280</ele>
        <time>2022-07-27T09:12:10Z</time>
      </trkpt>
      <trkpt lat="43.19178" lon="0.98126">
        <ele>280</ele>
        <time>2022-07-27T09:12:14Z</time>
      </trkpt>
      <trkpt lat="43.19177" lon="0.9812">
        <ele>280</ele>
        <time>2022-07-27T09:12:17Z</time>
      </trkpt>
      <trkpt lat="43.19165" lon="0.98087">
        <ele>279</ele>
        <time>2022-07-27T09:12:40Z</time>
      </trkpt>
      <trkpt lat="43.19152" lon="0.98034">
        <ele>279</ele>
        <time>2022-07-27T09:13:13Z</time>
      </trkpt>
      <trkpt lat="43.19148" lon="0.9802">
        <ele>278</ele>
        <time>2022-07-27T09:13:23Z</time>
      </trkpt>
      <trkpt lat="43.19141" lon="0.97966">
        <ele>279</ele>
        <time>2022-07-27T09:13:56Z</time>
      </trkpt>
      <trkpt lat="43.1914" lon="0.97959">
        <ele>279</ele>
        <time>2022-07-27T09:14:00Z</time>
      </trkpt>
      <trkpt lat="43.19141" lon="0.97953">
        <ele>279</ele>
        <time>2022-07-27T09:14:04Z</time>
      </trkpt>
      <trkpt lat="43.19138" lon="0.97922">
        <ele>280</ele>
        <time>2022-07-27T09:14:23Z</time>
      </trkpt>
      <trkpt lat="43.19139" lon="0.97891">
        <ele>280</ele>
        <time>2022-07-27T09:14:42Z</time>
      </trkpt>
      <trkpt lat="43.19135" lon="0.97847">
        <ele>281</ele>
        <time>2022-07-27T09:15:13Z</time>
      </trkpt>
      <trkpt lat="43.19136" lon="0.97841">
        <ele>281</ele>
        <time>2022-07-27T09:15:17Z</time>
      </trkpt>
      <trkpt lat="43.19134" lon="0.97834">
        <ele>281</ele>
        <time>2022-07-27T09:15:21Z</time>
      </trkpt>
      <trkpt lat="43.19132" lon="0.97818">
        <ele>281</ele>
        <time>2022-07-27T09:15:30Z</time>
      </trkpt>
      <trkpt lat="43.1913" lon="0.97812">
        <ele>281</ele>
        <time>2022-07-27T09:15:35Z</time>
      </trkpt>
      <trkpt lat="43.19125" lon="0.9781">
        <ele>280</ele>
        <time>2022-07-27T09:15:42Z</time>
      </trkpt>
      <trkpt lat="43.19091" lon="0.97827">
        <ele>278</ele>
        <time>2022-07-27T09:16:14Z</time>
      </trkpt>
      <trkpt lat="43.19053" lon="0.97848">
        <ele>277</ele>
        <time>2022-07-27T09:16:48Z</time>
      </trkpt>
      <trkpt lat="43.19028" lon="0.97863">
        <ele>277</ele>
        <time>2022-07-27T09:17:11Z</time>
      </trkpt>
      <trkpt lat="43.19015" lon="0.97876">
        <ele>277</ele>
        <time>2022-07-27T09:17:25Z</time>
      </trkpt>
      <trkpt lat="43.19012" lon="0.97879">
        <ele>277</ele>
        <time>2022-07-27T09:17:28Z</time>
      </trkpt>
      <trkpt lat="43.19008" lon="0.97883">
        <ele>277</ele>
        <time>2022-07-27T09:17:32Z</time>
      </trkpt>
      <trkpt lat="43.18997" lon="0.97892">
        <ele>277</ele>
        <time>2022-07-27T09:17:42Z</time>
      </trkpt>
      <trkpt lat="43.18993" lon="0.97893">
        <ele>277</ele>
        <time>2022-07-27T09:17:46Z</time>
      </trkpt>
      <trkpt lat="43.18989" lon="0.97896">
        <ele>277</ele>
        <time>2022-07-27T09:17:49Z</time>
      </trkpt>
      <trkpt lat="43.18985" lon="0.97898">
        <ele>278</ele>
        <time>2022-07-27T09:17:53Z</time>
      </trkpt>
      <trkpt lat="43.18972" lon="0.97905">
        <ele>277</ele>
        <time>2022-07-27T09:18:05Z</time>
      </trkpt>
      <trkpt lat="43.18958" lon="0.97912">
        <ele>277</ele>
        <time>2022-07-27T09:18:19Z</time>
      </trkpt>
      <trkpt lat="43.18953" lon="0.97913">
        <ele>277</ele>
        <time>2022-07-27T09:18:23Z</time>
      </trkpt>
      <trkpt lat="43.18932" lon="0.97925">
        <ele>277</ele>
        <time>2022-07-27T09:18:42Z</time>
      </trkpt>
      <trkpt lat="43.18928" lon="0.97926">
        <ele>277</ele>
        <time>2022-07-27T09:18:45Z</time>
      </trkpt>
      <trkpt lat="43.18921" lon="0.97931">
        <ele>277</ele>
        <time>2022-07-27T09:18:51Z</time>
      </trkpt>
      <trkpt lat="43.18895" lon="0.97943">
        <ele>277</ele>
        <time>2022-07-27T09:19:13Z</time>
      </trkpt>
      <trkpt lat="43.18881" lon="0.97952">
        <ele>276</ele>
        <time>2022-07-27T09:19:26Z</time>
      </trkpt>
      <trkpt lat="43.18877" lon="0.97954">
        <ele>276</ele>
        <time>2022-07-27T09:19:29Z</time>
      </trkpt>
      <trkpt lat="43.1887" lon="0.97959">
        <ele>277</ele>
        <time>2022-07-27T09:19:35Z</time>
      </trkpt>
      <trkpt lat="43.18867" lon="0.97961">
        <ele>277</ele>
        <time>2022-07-27T09:19:38Z</time>
      </trkpt>
      <trkpt lat="43.18848" lon="0.97974">
        <ele>277</ele>
        <time>2022-07-27T09:19:56Z</time>
      </trkpt>
      <trkpt lat="43.18839" lon="0.97977">
        <ele>277</ele>
        <time>2022-07-27T09:20:03Z</time>
      </trkpt>
      <trkpt lat="43.18828" lon="0.97987">
        <ele>276</ele>
        <time>2022-07-27T09:20:14Z</time>
      </trkpt>
      <trkpt lat="43.18826" lon="0.97992">
        <ele>276</ele>
        <time>2022-07-27T09:20:17Z</time>
      </trkpt>
      <trkpt lat="43.18817" lon="0.97999">
        <ele>276</ele>
        <time>2022-07-27T09:20:26Z</time>
      </trkpt>
      <trkpt lat="43.18814" lon="0.98005">
        <ele>276</ele>
        <time>2022-07-27T09:20:30Z</time>
      </trkpt>
      <trkpt lat="43.18798" lon="0.98028">
        <ele>277</ele>
        <time>2022-07-27T09:20:58Z</time>
      </trkpt>
      <trkpt lat="43.18793" lon="0.98031">
        <ele>277</ele>
        <time>2022-07-27T09:21:05Z</time>
      </trkpt>
      <trkpt lat="43.18789" lon="0.98031">
        <ele>277</ele>
        <time>2022-07-27T09:21:09Z</time>
      </trkpt>
      <trkpt lat="43.18782" lon="0.98019">
        <ele>277</ele>
        <time>2022-07-27T09:21:24Z</time>
      </trkpt>
      <trkpt lat="43.18778" lon="0.98012">
        <ele>277</ele>
        <time>2022-07-27T09:21:28Z</time>
      </trkpt>
      <trkpt lat="43.18777" lon="0.98008">
        <ele>277</ele>
        <time>2022-07-27T09:21:30Z</time>
      </trkpt>
      <trkpt lat="43.18774" lon="0.98004">
        <ele>276</ele>
        <time>2022-07-27T09:21:33Z</time>
      </trkpt>
      <trkpt lat="43.18768" lon="0.9799">
        <ele>276</ele>
        <time>2022-07-27T09:21:42Z</time>
      </trkpt>
      <trkpt lat="43.18766" lon="0.97982">
        <ele>275</ele>
        <time>2022-07-27T09:21:49Z</time>
      </trkpt>
      <trkpt lat="43.18765" lon="0.97975">
        <ele>276</ele>
        <time>2022-07-27T09:22:21Z</time>
      </trkpt>
      <trkpt lat="43.18761" lon="0.97964">
        <ele>276</ele>
        <time>2022-07-27T09:22:32Z</time>
      </trkpt>
      <trkpt lat="43.18749" lon="0.97923">
        <ele>275</ele>
        <time>2022-07-27T09:23:06Z</time>
      </trkpt>
      <trkpt lat="43.18738" lon="0.97905">
        <ele>275</ele>
        <time>2022-07-27T09:23:21Z</time>
      </trkpt>
      <trkpt lat="43.1872" lon="0.97885">
        <ele>276</ele>
        <time>2022-07-27T09:23:41Z</time>
      </trkpt>
      <trkpt lat="43.18717" lon="0.97883">
        <ele>276</ele>
        <time>2022-07-27T09:23:44Z</time>
      </trkpt>
      <trkpt lat="43.18714" lon="0.97879">
        <ele>276</ele>
        <time>2022-07-27T09:23:47Z</time>
      </trkpt>
      <trkpt lat="43.18683" lon="0.97861">
        <ele>275</ele>
        <time>2022-07-27T09:24:19Z</time>
      </trkpt>
      <trkpt lat="43.18675" lon="0.97856">
        <ele>275</ele>
        <time>2022-07-27T09:24:26Z</time>
      </trkpt>
      <trkpt lat="43.18667" lon="0.97854">
        <ele>275</ele>
        <time>2022-07-27T09:24:34Z</time>
      </trkpt>
      <trkpt lat="43.18663" lon="0.97851">
        <ele>275</ele>
        <time>2022-07-27T09:24:38Z</time>
      </trkpt>
      <trkpt lat="43.18647" lon="0.97845">
        <ele>275</ele>
        <time>2022-07-27T09:24:52Z</time>
      </trkpt>
      <trkpt lat="43.1864" lon="0.97838">
        <ele>275</ele>
        <time>2022-07-27T09:25:00Z</time>
      </trkpt>
      <trkpt lat="43.18634" lon="0.97835">
        <ele>275</ele>
        <time>2022-07-27T09:25:10Z</time>
      </trkpt>
      <trkpt lat="43.18628" lon="0.97829">
        <ele>276</ele>
        <time>2022-07-27T09:25:17Z</time>
      </trkpt>
      <trkpt lat="43.1862" lon="0.97822">
        <ele>276</ele>
        <time>2022-07-27T09:25:26Z</time>
      </trkpt>
      <trkpt lat="43.18617" lon="0.97817">
        <ele>276</ele>
        <time>2022-07-27T09:25:31Z</time>
      </trkpt>
      <trkpt lat="43.18614" lon="0.97804">
        <ele>276</ele>
        <time>2022-07-27T09:25:40Z</time>
      </trkpt>
      <trkpt lat="43.18612" lon="0.97795">
        <ele>276</ele>
        <time>2022-07-27T09:25:47Z</time>
      </trkpt>
      <trkpt lat="43.18611" lon="0.97789">
        <ele>276</ele>
        <time>2022-07-27T09:25:51Z</time>
      </trkpt>
      <trkpt lat="43.1861" lon="0.97782">
        <ele>276</ele>
        <time>2022-07-27T09:25:59Z</time>
      </trkpt>
      <trkpt lat="43.18611" lon="0.97775">
        <ele>277</ele>
        <time>2022-07-27T09:26:29Z</time>
      </trkpt>
      <trkpt lat="43.18609" lon="0.97766">
        <ele>276</ele>
        <time>2022-07-27T09:26:45Z</time>
      </trkpt>
      <trkpt lat="43.18606" lon="0.97765">
        <ele>276</ele>
        <time>2022-07-27T09:26:53Z</time>
      </trkpt>
      <trkpt lat="43.18597" lon="0.97772">
        <ele>276</ele>
        <time>2022-07-27T09:27:01Z</time>
      </trkpt>
      <trkpt lat="43.18588" lon="0.97774">
        <ele>275</ele>
        <time>2022-07-27T09:27:09Z</time>
      </trkpt>
      <trkpt lat="43.18577" lon="0.97772">
        <ele>275</ele>
        <time>2022-07-27T09:27:20Z</time>
      </trkpt>
      <trkpt lat="43.18574" lon="0.97768">
        <ele>274</ele>
        <time>2022-07-27T09:27:24Z</time>
      </trkpt>
      <trkpt lat="43.18572" lon="0.97762">
        <ele>274</ele>
        <time>2022-07-27T09:27:28Z</time>
      </trkpt>
      <trkpt lat="43.1857" lon="0.97758">
        <ele>274</ele>
        <time>2022-07-27T09:27:31Z</time>
      </trkpt>
      <trkpt lat="43.18563" lon="0.97743">
        <ele>275</ele>
        <time>2022-07-27T09:27:42Z</time>
      </trkpt>
      <trkpt lat="43.18553" lon="0.9773">
        <ele>275</ele>
        <time>2022-07-27T09:27:54Z</time>
      </trkpt>
      <trkpt lat="43.18549" lon="0.97719">
        <ele>275</ele>
        <time>2022-07-27T09:28:07Z</time>
      </trkpt>
      <trkpt lat="43.18545" lon="0.97717">
        <ele>276</ele>
        <time>2022-07-27T09:28:42Z</time>
      </trkpt>
      <trkpt lat="43.1854" lon="0.97718">
        <ele>276</ele>
        <time>2022-07-27T09:28:49Z</time>
      </trkpt>
      <trkpt lat="43.18529" lon="0.97694">
        <ele>276</ele>
        <time>2022-07-27T09:29:06Z</time>
      </trkpt>
      <trkpt lat="43.1852" lon="0.97683">
        <ele>276</ele>
        <time>2022-07-27T09:29:17Z</time>
      </trkpt>
      <trkpt lat="43.18518" lon="0.97676">
        <ele>276</ele>
        <time>2022-07-27T09:29:22Z</time>
      </trkpt>
      <trkpt lat="43.18515" lon="0.97664">
        <ele>276</ele>
        <time>2022-07-27T09:29:29Z</time>
      </trkpt>
      <trkpt lat="43.18513" lon="0.97654">
        <ele>276</ele>
        <time>2022-07-27T09:29:36Z</time>
      </trkpt>
      <trkpt lat="43.18492" lon="0.97626">
        <ele>276</ele>
        <time>2022-07-27T09:30:03Z</time>
      </trkpt>
      <trkpt lat="43.18488" lon="0.97623">
        <ele>276</ele>
        <time>2022-07-27T09:30:07Z</time>
      </trkpt>
      <trkpt lat="43.18466" lon="0.97589">
        <ele>276</ele>
        <time>2022-07-27T09:30:37Z</time>
      </trkpt>
      <trkpt lat="43.18436" lon="0.97563">
        <ele>276</ele>
        <time>2022-07-27T09:31:10Z</time>
      </trkpt>
      <trkpt lat="43.1842" lon="0.97554">
        <ele>277</ele>
        <time>2022-07-27T09:31:25Z</time>
      </trkpt>
      <trkpt lat="43.18416" lon="0.97552">
        <ele>277</ele>
        <time>2022-07-27T09:31:28Z</time>
      </trkpt>
      <trkpt lat="43.1841" lon="0.97552">
        <ele>277</ele>
        <time>2022-07-27T09:31:35Z</time>
      </trkpt>
      <trkpt lat="43.18406" lon="0.97551">
        <ele>277</ele>
        <time>2022-07-27T09:31:38Z</time>
      </trkpt>
      <trkpt lat="43.18391" lon="0.97538">
        <ele>277</ele>
        <time>2022-07-27T09:31:53Z</time>
      </trkpt>
      <trkpt lat="43.18389" lon="0.97534">
        <ele>277</ele>
        <time>2022-07-27T09:31:57Z</time>
      </trkpt>
      <trkpt lat="43.18386" lon="0.9753">
        <ele>277</ele>
        <time>2022-07-27T09:32:00Z</time>
      </trkpt>
      <trkpt lat="43.18374" lon="0.97521">
        <ele>277</ele>
        <time>2022-07-27T09:32:14Z</time>
      </trkpt>
      <trkpt lat="43.18369" lon="0.97516">
        <ele>277</ele>
        <time>2022-07-27T09:32:20Z</time>
      </trkpt>
      <trkpt lat="43.1837" lon="0.9751">
        <ele>277</ele>
        <time>2022-07-27T09:32:23Z</time>
      </trkpt>
      <trkpt lat="43.1837" lon="0.97505">
        <ele>278</ele>
        <time>2022-07-27T09:32:53Z</time>
      </trkpt>
      <trkpt lat="43.18367" lon="0.975">
        <ele>278</ele>
        <time>2022-07-27T09:32:57Z</time>
      </trkpt>
      <trkpt lat="43.18359" lon="0.97485">
        <ele>278</ele>
        <time>2022-07-27T09:33:09Z</time>
      </trkpt>
      <trkpt lat="43.18357" lon="0.97479">
        <ele>278</ele>
        <time>2022-07-27T09:33:13Z</time>
      </trkpt>
      <trkpt lat="43.18354" lon="0.97475">
        <ele>278</ele>
        <time>2022-07-27T09:33:17Z</time>
      </trkpt>
      <trkpt lat="43.18344" lon="0.97448">
        <ele>278</ele>
        <time>2022-07-27T09:33:37Z</time>
      </trkpt>
      <trkpt lat="43.18341" lon="0.97435">
        <ele>278</ele>
        <time>2022-07-27T09:33:43Z</time>
      </trkpt>
      <trkpt lat="43.1834" lon="0.9743">
        <ele>278</ele>
        <time>2022-07-27T09:33:46Z</time>
      </trkpt>
      <trkpt lat="43.18338" lon="0.97418">
        <ele>278</ele>
        <time>2022-07-27T09:33:54Z</time>
      </trkpt>
      <trkpt lat="43.18335" lon="0.97407">
        <ele>279</ele>
        <time>2022-07-27T09:34:01Z</time>
      </trkpt>
      <trkpt lat="43.18332" lon="0.97379">
        <ele>279</ele>
        <time>2022-07-27T09:34:20Z</time>
      </trkpt>
      <trkpt lat="43.1833" lon="0.97374">
        <ele>278</ele>
        <time>2022-07-27T09:34:23Z</time>
      </trkpt>
      <trkpt lat="43.18329" lon="0.97355">
        <ele>278</ele>
        <time>2022-07-27T09:34:35Z</time>
      </trkpt>
      <trkpt lat="43.18328" lon="0.97349">
        <ele>278</ele>
        <time>2022-07-27T09:34:39Z</time>
      </trkpt>
      <trkpt lat="43.18325" lon="0.97345">
        <ele>279</ele>
        <time>2022-07-27T09:34:43Z</time>
      </trkpt>
      <trkpt lat="43.18321" lon="0.97341">
        <ele>279</ele>
        <time>2022-07-27T09:34:53Z</time>
      </trkpt>
      <trkpt lat="43.18308" lon="0.9731">
        <ele>278</ele>
        <time>2022-07-27T09:35:17Z</time>
      </trkpt>
      <trkpt lat="43.18301" lon="0.97303">
        <ele>279</ele>
        <time>2022-07-27T09:35:24Z</time>
      </trkpt>
      <trkpt lat="43.18296" lon="0.97293">
        <ele>278</ele>
        <time>2022-07-27T09:35:32Z</time>
      </trkpt>
      <trkpt lat="43.18291" lon="0.9729">
        <ele>278</ele>
        <time>2022-07-27T09:35:36Z</time>
      </trkpt>
      <trkpt lat="43.18285" lon="0.97285">
        <ele>278</ele>
        <time>2022-07-27T09:35:42Z</time>
      </trkpt>
      <trkpt lat="43.18282" lon="0.97283">
        <ele>278</ele>
        <time>2022-07-27T09:35:45Z</time>
      </trkpt>
      <trkpt lat="43.18279" lon="0.97278">
        <ele>278</ele>
        <time>2022-07-27T09:35:49Z</time>
      </trkpt>
      <trkpt lat="43.18272" lon="0.97273">
        <ele>278</ele>
        <time>2022-07-27T09:35:56Z</time>
      </trkpt>
      <trkpt lat="43.18261" lon="0.97269">
        <ele>279</ele>
        <time>2022-07-27T09:36:06Z</time>
      </trkpt>
      <trkpt lat="43.18257" lon="0.97266">
        <ele>278</ele>
        <time>2022-07-27T09:36:10Z</time>
      </trkpt>
      <trkpt lat="43.18248" lon="0.97261">
        <ele>279</ele>
        <time>2022-07-27T09:36:20Z</time>
      </trkpt>
      <trkpt lat="43.18239" lon="0.97255">
        <ele>279</ele>
        <time>2022-07-27T09:36:32Z</time>
      </trkpt>
      <trkpt lat="43.18237" lon="0.97261">
        <ele>279</ele>
        <time>2022-07-27T09:36:38Z</time>
      </trkpt>
      <trkpt lat="43.18238" lon="0.97267">
        <ele>279</ele>
        <time>2022-07-27T09:36:41Z</time>
      </trkpt>
      <trkpt lat="43.18239" lon="0.97271">
        <ele>279</ele>
        <time>2022-07-27T09:36:45Z</time>
      </trkpt>
      <trkpt lat="43.18242" lon="0.97275">
        <ele>279</ele>
        <time>2022-07-27T09:36:49Z</time>
      </trkpt>
      <trkpt lat="43.18237" lon="0.97282">
        <ele>278</ele>
        <time>2022-07-27T09:36:57Z</time>
      </trkpt>
      <trkpt lat="43.18225" lon="0.97283">
        <ele>278</ele>
        <time>2022-07-27T09:37:06Z</time>
      </trkpt>
      <trkpt lat="43.18213" lon="0.97276">
        <ele>277</ele>
        <time>2022-07-27T09:37:17Z</time>
      </trkpt>
      <trkpt lat="43.18183" lon="0.97268">
        <ele>277</ele>
        <time>2022-07-27T09:37:41Z</time>
      </trkpt>
      <trkpt lat="43.18179" lon="0.97265">
        <ele>276</ele>
        <time>2022-07-27T09:37:45Z</time>
      </trkpt>
      <trkpt lat="43.1817" lon="0.97261">
        <ele>276</ele>
        <time>2022-07-27T09:37:53Z</time>
      </trkpt>
      <trkpt lat="43.18157" lon="0.97259">
        <ele>276</ele>
        <time>2022-07-27T09:38:04Z</time>
      </trkpt>
      <trkpt lat="43.18154" lon="0.97257">
        <ele>276</ele>
        <time>2022-07-27T09:38:07Z</time>
      </trkpt>
      <trkpt lat="43.18126" lon="0.97254">
        <ele>276</ele>
        <time>2022-07-27T09:38:32Z</time>
      </trkpt>
      <trkpt lat="43.18123" lon="0.97252">
        <ele>275</ele>
        <time>2022-07-27T09:38:36Z</time>
      </trkpt>
      <trkpt lat="43.18118" lon="0.97253">
        <ele>275</ele>
        <time>2022-07-27T09:38:41Z</time>
      </trkpt>
      <trkpt lat="43.18115" lon="0.9725">
        <ele>275</ele>
        <time>2022-07-27T09:38:44Z</time>
      </trkpt>
      <trkpt lat="43.18113" lon="0.9726">
        <ele>274</ele>
        <time>2022-07-27T09:39:19Z</time>
      </trkpt>
      <trkpt lat="43.18084" lon="0.97283">
        <ele>271</ele>
        <time>2022-07-27T09:39:53Z</time>
      </trkpt>
      <trkpt lat="43.1808" lon="0.97287">
        <ele>271</ele>
        <time>2022-07-27T09:39:58Z</time>
      </trkpt>
      <trkpt lat="43.18054" lon="0.97314">
        <ele>271</ele>
        <time>2022-07-27T09:40:29Z</time>
      </trkpt>
      <trkpt lat="43.1805" lon="0.97319">
        <ele>271</ele>
        <time>2022-07-27T09:40:33Z</time>
      </trkpt>
      <trkpt lat="43.18031" lon="0.97332">
        <ele>273</ele>
        <time>2022-07-27T09:40:54Z</time>
      </trkpt>
      <trkpt lat="43.18028" lon="0.97333">
        <ele>273</ele>
        <time>2022-07-27T09:40:58Z</time>
      </trkpt>
      <trkpt lat="43.18021" lon="0.97331">
        <ele>274</ele>
        <time>2022-07-27T09:41:05Z</time>
      </trkpt>
      <trkpt lat="43.1801" lon="0.97328">
        <ele>274</ele>
        <time>2022-07-27T09:41:15Z</time>
      </trkpt>
      <trkpt lat="43.18006" lon="0.97326">
        <ele>274</ele>
        <time>2022-07-27T09:41:19Z</time>
      </trkpt>
      <trkpt lat="43.17998" lon="0.97324">
        <ele>274</ele>
        <time>2022-07-27T09:41:25Z</time>
      </trkpt>
      <trkpt lat="43.17995" lon="0.97321">
        <ele>273</ele>
        <time>2022-07-27T09:41:29Z</time>
      </trkpt>
      <trkpt lat="43.17988" lon="0.9732">
        <ele>273</ele>
        <time>2022-07-27T09:41:37Z</time>
      </trkpt>
      <trkpt lat="43.17984" lon="0.97317">
        <ele>274</ele>
        <time>2022-07-27T09:41:58Z</time>
      </trkpt>
      <trkpt lat="43.1798" lon="0.97313">
        <ele>273</ele>
        <time>2022-07-27T09:42:08Z</time>
      </trkpt>
      <trkpt lat="43.17968" lon="0.97304">
        <ele>273</ele>
        <time>2022-07-27T09:42:20Z</time>
      </trkpt>
      <trkpt lat="43.17952" lon="0.97297">
        <ele>273</ele>
        <time>2022-07-27T09:42:33Z</time>
      </trkpt>
      <trkpt lat="43.17948" lon="0.97294">
        <ele>273</ele>
        <time>2022-07-27T09:42:36Z</time>
      </trkpt>
      <trkpt lat="43.17951" lon="0.97262">
        <ele>273</ele>
        <time>2022-07-27T09:42:53Z</time>
      </trkpt>
      <trkpt lat="43.17953" lon="0.97254">
        <ele>273</ele>
        <time>2022-07-27T09:43:01Z</time>
      </trkpt>
      <trkpt lat="43.17957" lon="0.97244">
        <ele>273</ele>
        <time>2022-07-27T09:43:19Z</time>
      </trkpt>
      <trkpt lat="43.17957" lon="0.97248">
        <ele>271</ele>
        <time>2022-07-27T09:47:20Z</time>
      </trkpt>
    </trkseg>
  </trk>
</gpx>